<?xml version="1.0" encoding="UTF-8" standalone="no" ?>
<gpx xmlns="http://www.topografix.com/GPX/1/1" xmlns:xsi="http://www.w3.org/2001/XMLSchema-instance" xsi:schemaLocation="http://www.topografix.com/GPX/1/1 http://www.topografix.com/GPX/1/1/gpx.xsd" version="1.1" creator="VisuGPX - https://www.visugpx.com">
  <metadata>
    <name>Wintertrail 2018 - Equipe 39</name>
    <desc><![CDATA[Voici la trace de notre rando en raquettes sur l'Oxfam Wintertrail 2018.
L'équipe 39 : Ampoules en Abondance]]></desc>
  </metadata>
  <wpt lat="46.26534" lon="6.70463">
    <ele>1389.6</ele>
  </wpt>
  <wpt lat="46.2945" lon="6.78798">
    <ele>1012.4</ele>
  </wpt>
  <wpt lat="46.27953" lon="6.7201">
    <ele>922.7</ele>
  </wpt>
  <wpt lat="46.26789" lon="6.84033">
    <ele>1177.7</ele>
  </wpt>
  <wpt lat="46.23803" lon="6.85405">
    <ele>1326.3</ele>
  </wpt>
  <wpt lat="46.25472" lon="6.82137">
    <ele>1119.2</ele>
  </wpt>
  <wpt lat="46.29116" lon="6.79914">
    <ele>1008.2</ele>
  </wpt>
  <trk>
    <name><![CDATA[39. Ampoules en Abondance]]></name>
    <trkseg>
      <trkpt lat="46.26457" lon="6.70458">
        <ele>1407</ele>
        <time>2018-03-10T07:30:04.0000000Z</time>
      </trkpt>
      <trkpt lat="46.26524" lon="6.70426">
        <ele>1411</ele>
        <time>2018-03-10T07:32:04.0000000Z</time>
      </trkpt>
      <trkpt lat="46.26553" lon="6.70346">
        <ele>1424</ele>
        <time>2018-03-10T07:34:05.0000000Z</time>
      </trkpt>
      <trkpt lat="46.26586" lon="6.70237">
        <ele>1437</ele>
        <time>2018-03-10T07:36:05.0000000Z</time>
      </trkpt>
      <trkpt lat="46.2661" lon="6.70163">
        <ele>1459</ele>
        <time>2018-03-10T07:38:05.0000000Z</time>
      </trkpt>
      <trkpt lat="46.26616" lon="6.70054">
        <ele>1473</ele>
        <time>2018-03-10T07:40:05.0000000Z</time>
      </trkpt>
      <trkpt lat="46.26608" lon="6.69935">
        <ele>1485</ele>
        <time>2018-03-10T07:42:01.0000000Z</time>
      </trkpt>
      <trkpt lat="46.26608" lon="6.69932">
        <ele>1486</ele>
        <time>2018-03-10T07:42:04.0000000Z</time>
      </trkpt>
      <trkpt lat="46.26605" lon="6.69847">
        <ele>1500</ele>
        <time>2018-03-10T07:44:05.0000000Z</time>
      </trkpt>
      <trkpt lat="46.26621" lon="6.69768">
        <ele>1522</ele>
        <time>2018-03-10T07:46:04.0000000Z</time>
      </trkpt>
      <trkpt lat="46.26631" lon="6.69667">
        <ele>1538</ele>
        <time>2018-03-10T07:48:03.0000000Z</time>
      </trkpt>
      <trkpt lat="46.26639" lon="6.69568">
        <ele>1552</ele>
        <time>2018-03-10T07:50:05.0000000Z</time>
      </trkpt>
      <trkpt lat="46.26652" lon="6.69497">
        <ele>1574</ele>
        <time>2018-03-10T07:52:05.0000000Z</time>
      </trkpt>
      <trkpt lat="46.26685" lon="6.69409">
        <ele>1592</ele>
        <time>2018-03-10T07:54:03.0000000Z</time>
      </trkpt>
      <trkpt lat="46.26735" lon="6.6933">
        <ele>1603</ele>
        <time>2018-03-10T07:56:05.0000000Z</time>
      </trkpt>
      <trkpt lat="46.26784" lon="6.69268">
        <ele>1618</ele>
        <time>2018-03-10T07:58:05.0000000Z</time>
      </trkpt>
      <trkpt lat="46.26832" lon="6.69223">
        <ele>1629</ele>
        <time>2018-03-10T08:00:05.0000000Z</time>
      </trkpt>
      <trkpt lat="46.26867" lon="6.69146">
        <ele>1655</ele>
        <time>2018-03-10T08:02:05.0000000Z</time>
      </trkpt>
      <trkpt lat="46.26828" lon="6.69077">
        <ele>1669</ele>
        <time>2018-03-10T08:04:05.0000000Z</time>
      </trkpt>
      <trkpt lat="46.26899" lon="6.69065">
        <ele>1685</ele>
        <time>2018-03-10T08:05:56.0000000Z</time>
      </trkpt>
      <trkpt lat="46.269" lon="6.69065">
        <ele>1684</ele>
        <time>2018-03-10T08:06:00.0000000Z</time>
      </trkpt>
      <trkpt lat="46.26901" lon="6.69064">
        <ele>1684</ele>
        <time>2018-03-10T08:06:03.0000000Z</time>
      </trkpt>
      <trkpt lat="46.26919" lon="6.69116">
        <ele>1683</ele>
        <time>2018-03-10T08:07:57.0000000Z</time>
      </trkpt>
      <trkpt lat="46.26919" lon="6.69119">
        <ele>1683</ele>
        <time>2018-03-10T08:08:00.0000000Z</time>
      </trkpt>
      <trkpt lat="46.2692" lon="6.69122">
        <ele>1684</ele>
        <time>2018-03-10T08:08:03.0000000Z</time>
      </trkpt>
      <trkpt lat="46.26931" lon="6.69258">
        <ele>1670</ele>
        <time>2018-03-10T08:09:56.0000000Z</time>
      </trkpt>
      <trkpt lat="46.26929" lon="6.69265">
        <ele>1668</ele>
        <time>2018-03-10T08:10:04.0000000Z</time>
      </trkpt>
      <trkpt lat="46.26943" lon="6.69421">
        <ele>1657</ele>
        <time>2018-03-10T08:12:04.0000000Z</time>
      </trkpt>
      <trkpt lat="46.26962" lon="6.69587">
        <ele>1644</ele>
        <time>2018-03-10T08:14:05.0000000Z</time>
      </trkpt>
      <trkpt lat="46.26925" lon="6.69724">
        <ele>1613</ele>
        <time>2018-03-10T08:16:04.0000000Z</time>
      </trkpt>
      <trkpt lat="46.26907" lon="6.69865">
        <ele>1571</ele>
        <time>2018-03-10T08:18:05.0000000Z</time>
      </trkpt>
      <trkpt lat="46.26905" lon="6.70003">
        <ele>1543</ele>
        <time>2018-03-10T08:20:06.0000000Z</time>
      </trkpt>
      <trkpt lat="46.26878" lon="6.70136">
        <ele>1505</ele>
        <time>2018-03-10T08:22:05.0000000Z</time>
      </trkpt>
      <trkpt lat="46.26783" lon="6.70233">
        <ele>1472</ele>
        <time>2018-03-10T08:24:06.0000000Z</time>
      </trkpt>
      <trkpt lat="46.26727" lon="6.70373">
        <ele>1433</ele>
        <time>2018-03-10T08:26:00.0000000Z</time>
      </trkpt>
      <trkpt lat="46.26727" lon="6.70373">
        <ele>1432</ele>
        <time>2018-03-10T08:26:06.0000000Z</time>
      </trkpt>
      <trkpt lat="46.2669" lon="6.70517">
        <ele>1402</ele>
        <time>2018-03-10T08:28:04.0000000Z</time>
      </trkpt>
      <trkpt lat="46.26688" lon="6.70521">
        <ele>1401</ele>
        <time>2018-03-10T08:28:07.0000000Z</time>
      </trkpt>
      <trkpt lat="46.2658" lon="6.70511">
        <ele>1393</ele>
        <time>2018-03-10T08:30:05.0000000Z</time>
      </trkpt>
      <trkpt lat="46.26467" lon="6.70459">
        <ele>1389</ele>
        <time>2018-03-10T08:32:05.0000000Z</time>
      </trkpt>
      <trkpt lat="46.26358" lon="6.70543">
        <ele>1385</ele>
        <time>2018-03-10T08:34:08.0000000Z</time>
      </trkpt>
      <trkpt lat="46.2626" lon="6.70589">
        <ele>1381</ele>
        <time>2018-03-10T08:36:05.0000000Z</time>
      </trkpt>
      <trkpt lat="46.26182" lon="6.70723">
        <ele>1387</ele>
        <time>2018-03-10T08:38:07.0000000Z</time>
      </trkpt>
      <trkpt lat="46.2608" lon="6.7081">
        <ele>1382</ele>
        <time>2018-03-10T08:40:07.0000000Z</time>
      </trkpt>
      <trkpt lat="46.26051" lon="6.70898">
        <ele>1375</ele>
        <time>2018-03-10T08:42:02.0000000Z</time>
      </trkpt>
      <trkpt lat="46.26051" lon="6.70897">
        <ele>1375</ele>
        <time>2018-03-10T08:42:07.0000000Z</time>
      </trkpt>
      <trkpt lat="46.25987" lon="6.71024">
        <ele>1358</ele>
        <time>2018-03-10T08:44:06.0000000Z</time>
      </trkpt>
      <trkpt lat="46.26003" lon="6.71227">
        <ele>1349</ele>
        <time>2018-03-10T08:46:06.0000000Z</time>
      </trkpt>
      <trkpt lat="46.26089" lon="6.71378">
        <ele>1340</ele>
        <time>2018-03-10T08:48:06.0000000Z</time>
      </trkpt>
      <trkpt lat="46.26077" lon="6.71478">
        <ele>1343</ele>
        <time>2018-03-10T08:50:07.0000000Z</time>
      </trkpt>
      <trkpt lat="46.2597" lon="6.71463">
        <ele>1348</ele>
        <time>2018-03-10T08:52:06.0000000Z</time>
      </trkpt>
      <trkpt lat="46.25977" lon="6.7159">
        <ele>1354</ele>
        <time>2018-03-10T08:54:07.0000000Z</time>
      </trkpt>
      <trkpt lat="46.26068" lon="6.71673">
        <ele>1358</ele>
        <time>2018-03-10T08:56:07.0000000Z</time>
      </trkpt>
      <trkpt lat="46.26144" lon="6.71588">
        <ele>1342</ele>
        <time>2018-03-10T08:58:06.0000000Z</time>
      </trkpt>
      <trkpt lat="46.26273" lon="6.71588">
        <ele>1319</ele>
        <time>2018-03-10T09:00:01.0000000Z</time>
      </trkpt>
      <trkpt lat="46.26274" lon="6.71593">
        <ele>1321</ele>
        <time>2018-03-10T09:00:04.0000000Z</time>
      </trkpt>
      <trkpt lat="46.26277" lon="6.71597">
        <ele>1320</ele>
        <time>2018-03-10T09:00:07.0000000Z</time>
      </trkpt>
      <trkpt lat="46.26387" lon="6.7163">
        <ele>1298</ele>
        <time>2018-03-10T09:02:07.0000000Z</time>
      </trkpt>
      <trkpt lat="46.26517" lon="6.71686">
        <ele>1275</ele>
        <time>2018-03-10T09:04:07.0000000Z</time>
      </trkpt>
      <trkpt lat="46.26641" lon="6.71745">
        <ele>1249</ele>
        <time>2018-03-10T09:06:05.0000000Z</time>
      </trkpt>
      <trkpt lat="46.26602" lon="6.71595">
        <ele>1249</ele>
        <time>2018-03-10T09:08:12.0000000Z</time>
      </trkpt>
      <trkpt lat="46.26514" lon="6.71455">
        <ele>1231</ele>
        <time>2018-03-10T09:10:05.0000000Z</time>
      </trkpt>
      <trkpt lat="46.26497" lon="6.71341">
        <ele>1247</ele>
        <time>2018-03-10T09:12:08.0000000Z</time>
      </trkpt>
      <trkpt lat="46.26596" lon="6.71396">
        <ele>1222</ele>
        <time>2018-03-10T09:14:10.0000000Z</time>
      </trkpt>
      <trkpt lat="46.26722" lon="6.71418">
        <ele>1228</ele>
        <time>2018-03-10T09:16:09.0000000Z</time>
      </trkpt>
      <trkpt lat="46.26734" lon="6.71419">
        <ele>1205</ele>
        <time>2018-03-10T09:18:07.0000000Z</time>
      </trkpt>
      <trkpt lat="46.26836" lon="6.71493">
        <ele>1169</ele>
        <time>2018-03-10T09:20:07.0000000Z</time>
      </trkpt>
      <trkpt lat="46.26841" lon="6.71495">
        <ele>1166</ele>
        <time>2018-03-10T09:20:10.0000000Z</time>
      </trkpt>
      <trkpt lat="46.26981" lon="6.71556">
        <ele>1159</ele>
        <time>2018-03-10T09:22:08.0000000Z</time>
      </trkpt>
      <trkpt lat="46.27111" lon="6.71664">
        <ele>1077</ele>
        <time>2018-03-10T09:24:07.0000000Z</time>
      </trkpt>
      <trkpt lat="46.27237" lon="6.71614">
        <ele>1068</ele>
        <time>2018-03-10T09:26:15.0000000Z</time>
      </trkpt>
      <trkpt lat="46.27367" lon="6.71496">
        <ele>1065</ele>
        <time>2018-03-10T09:28:08.0000000Z</time>
      </trkpt>
      <trkpt lat="46.27438" lon="6.71368">
        <ele>1077</ele>
        <time>2018-03-10T09:30:08.0000000Z</time>
      </trkpt>
      <trkpt lat="46.2746" lon="6.71199">
        <ele>1067</ele>
        <time>2018-03-10T09:32:08.0000000Z</time>
      </trkpt>
      <trkpt lat="46.27459" lon="6.71196">
        <ele>1071</ele>
        <time>2018-03-10T09:32:11.0000000Z</time>
      </trkpt>
      <trkpt lat="46.27457" lon="6.71192">
        <ele>1072</ele>
        <time>2018-03-10T09:32:14.0000000Z</time>
      </trkpt>
      <trkpt lat="46.27424" lon="6.71058">
        <ele>1085</ele>
        <time>2018-03-10T09:34:03.0000000Z</time>
      </trkpt>
      <trkpt lat="46.27424" lon="6.71055">
        <ele>1086</ele>
        <time>2018-03-10T09:34:06.0000000Z</time>
      </trkpt>
      <trkpt lat="46.27422" lon="6.71049">
        <ele>1082</ele>
        <time>2018-03-10T09:34:14.0000000Z</time>
      </trkpt>
      <trkpt lat="46.27461" lon="6.71006">
        <ele>1069</ele>
        <time>2018-03-10T09:36:06.0000000Z</time>
      </trkpt>
      <trkpt lat="46.27572" lon="6.71144">
        <ele>1054</ele>
        <time>2018-03-10T09:38:08.0000000Z</time>
      </trkpt>
      <trkpt lat="46.27627" lon="6.71314">
        <ele>1040</ele>
        <time>2018-03-10T09:40:09.0000000Z</time>
      </trkpt>
      <trkpt lat="46.27651" lon="6.71488">
        <ele>1023</ele>
        <time>2018-03-10T09:42:07.0000000Z</time>
      </trkpt>
      <trkpt lat="46.27647" lon="6.71548">
        <ele>1032</ele>
        <time>2018-03-10T09:44:08.0000000Z</time>
      </trkpt>
      <trkpt lat="46.27633" lon="6.71685">
        <ele>1019</ele>
        <time>2018-03-10T09:46:08.0000000Z</time>
      </trkpt>
      <trkpt lat="46.27613" lon="6.71727">
        <ele>987</ele>
        <time>2018-03-10T09:48:02.0000000Z</time>
      </trkpt>
      <trkpt lat="46.27615" lon="6.71729">
        <ele>987</ele>
        <time>2018-03-10T09:48:05.0000000Z</time>
      </trkpt>
      <trkpt lat="46.27617" lon="6.71732">
        <ele>986</ele>
        <time>2018-03-10T09:48:08.0000000Z</time>
      </trkpt>
      <trkpt lat="46.27629" lon="6.71754">
        <ele>990</ele>
        <time>2018-03-10T09:50:08.0000000Z</time>
      </trkpt>
      <trkpt lat="46.27641" lon="6.71843">
        <ele>977</ele>
        <time>2018-03-10T09:52:00.0000000Z</time>
      </trkpt>
      <trkpt lat="46.27642" lon="6.71843">
        <ele>973</ele>
        <time>2018-03-10T09:52:05.0000000Z</time>
      </trkpt>
      <trkpt lat="46.27642" lon="6.71843">
        <ele>969</ele>
        <time>2018-03-10T09:52:08.0000000Z</time>
      </trkpt>
      <trkpt lat="46.27711" lon="6.71864">
        <ele>971</ele>
        <time>2018-03-10T09:54:14.0000000Z</time>
      </trkpt>
      <trkpt lat="46.27822" lon="6.71837">
        <ele>956</ele>
        <time>2018-03-10T09:56:05.0000000Z</time>
      </trkpt>
      <trkpt lat="46.27921" lon="6.71799">
        <ele>919</ele>
        <time>2018-03-10T09:58:06.0000000Z</time>
      </trkpt>
      <trkpt lat="46.27886" lon="6.71925">
        <ele>951</ele>
        <time>2018-03-10T10:00:07.0000000Z</time>
      </trkpt>
      <trkpt lat="46.27954" lon="6.72012">
        <ele>962</ele>
        <time>2018-03-10T10:01:54.0000000Z</time>
      </trkpt>
      <trkpt lat="46.27969" lon="6.71998">
        <ele>961</ele>
        <time>2018-03-10T10:02:07.0000000Z</time>
      </trkpt>
      <trkpt lat="46.27979" lon="6.71983">
        <ele>919</ele>
        <time>2018-03-10T10:05:20.0000000Z</time>
      </trkpt>
      <trkpt lat="46.27979" lon="6.71987">
        <ele>908</ele>
        <time>2018-03-10T10:05:26.0000000Z</time>
      </trkpt>
      <trkpt lat="46.27983" lon="6.7199">
        <ele>906</ele>
        <time>2018-03-10T10:05:29.0000000Z</time>
      </trkpt>
      <trkpt lat="46.2799" lon="6.71986">
        <ele>903</ele>
        <time>2018-03-10T10:05:32.0000000Z</time>
      </trkpt>
      <trkpt lat="46.27986" lon="6.71986">
        <ele>902</ele>
        <time>2018-03-10T10:05:35.0000000Z</time>
      </trkpt>
      <trkpt lat="46.27984" lon="6.71975">
        <ele>901</ele>
        <time>2018-03-10T10:05:39.0000000Z</time>
      </trkpt>
      <trkpt lat="46.27982" lon="6.71971">
        <ele>900</ele>
        <time>2018-03-10T10:05:43.0000000Z</time>
      </trkpt>
      <trkpt lat="46.27979" lon="6.71972">
        <ele>900</ele>
        <time>2018-03-10T10:05:46.0000000Z</time>
      </trkpt>
      <trkpt lat="46.27979" lon="6.71979">
        <ele>923</ele>
        <time>2018-03-10T10:08:36.0000000Z</time>
      </trkpt>
      <trkpt lat="46.27979" lon="6.71985">
        <ele>931</ele>
        <time>2018-03-10T10:08:41.0000000Z</time>
      </trkpt>
      <trkpt lat="46.2797" lon="6.71995">
        <ele>942</ele>
        <time>2018-03-10T10:26:07.0000000Z</time>
      </trkpt>
      <trkpt lat="46.27971" lon="6.71997">
        <ele>942</ele>
        <time>2018-03-10T10:26:10.0000000Z</time>
      </trkpt>
      <trkpt lat="46.27979" lon="6.71987">
        <ele>970</ele>
        <time>2018-03-10T10:28:46.0000000Z</time>
      </trkpt>
      <trkpt lat="46.27979" lon="6.71985">
        <ele>969</ele>
        <time>2018-03-10T10:28:49.0000000Z</time>
      </trkpt>
      <trkpt lat="46.27982" lon="6.71981">
        <ele>947</ele>
        <time>2018-03-10T10:28:53.0000000Z</time>
      </trkpt>
      <trkpt lat="46.2798" lon="6.71982">
        <ele>925</ele>
        <time>2018-03-10T10:29:00.0000000Z</time>
      </trkpt>
      <trkpt lat="46.27979" lon="6.72026">
        <ele>954</ele>
        <time>2018-03-10T10:30:51.0000000Z</time>
      </trkpt>
      <trkpt lat="46.27982" lon="6.72032">
        <ele>962</ele>
        <time>2018-03-10T10:31:02.0000000Z</time>
      </trkpt>
      <trkpt lat="46.27974" lon="6.72068">
        <ele>954</ele>
        <time>2018-03-10T10:31:10.0000000Z</time>
      </trkpt>
      <trkpt lat="46.27971" lon="6.72099">
        <ele>963</ele>
        <time>2018-03-10T10:31:25.0000000Z</time>
      </trkpt>
      <trkpt lat="46.27993" lon="6.71991">
        <ele>930</ele>
        <time>2018-03-10T10:32:16.0000000Z</time>
      </trkpt>
      <trkpt lat="46.27989" lon="6.71993">
        <ele>925</ele>
        <time>2018-03-10T10:32:19.0000000Z</time>
      </trkpt>
      <trkpt lat="46.27973" lon="6.72017">
        <ele>934</ele>
        <time>2018-03-10T10:32:46.0000000Z</time>
      </trkpt>
      <trkpt lat="46.27893" lon="6.72056">
        <ele>950</ele>
        <time>2018-03-10T10:34:00.0000000Z</time>
      </trkpt>
      <trkpt lat="46.27889" lon="6.72059">
        <ele>951</ele>
        <time>2018-03-10T10:34:03.0000000Z</time>
      </trkpt>
      <trkpt lat="46.27888" lon="6.72063">
        <ele>953</ele>
        <time>2018-03-10T10:34:06.0000000Z</time>
      </trkpt>
      <trkpt lat="46.27792" lon="6.72189">
        <ele>967</ele>
        <time>2018-03-10T10:36:09.0000000Z</time>
      </trkpt>
      <trkpt lat="46.27698" lon="6.7221">
        <ele>963</ele>
        <time>2018-03-10T10:38:13.0000000Z</time>
      </trkpt>
      <trkpt lat="46.27607" lon="6.72255">
        <ele>996</ele>
        <time>2018-03-10T10:40:10.0000000Z</time>
      </trkpt>
      <trkpt lat="46.27713" lon="6.72329">
        <ele>1043</ele>
        <time>2018-03-10T10:44:55.0000000Z</time>
      </trkpt>
      <trkpt lat="46.27711" lon="6.7233">
        <ele>1037</ele>
        <time>2018-03-10T10:45:02.0000000Z</time>
      </trkpt>
      <trkpt lat="46.27607" lon="6.72455">
        <ele>1036</ele>
        <time>2018-03-10T10:50:46.0000000Z</time>
      </trkpt>
      <trkpt lat="46.27607" lon="6.72473">
        <ele>1053</ele>
        <time>2018-03-10T10:51:57.0000000Z</time>
      </trkpt>
      <trkpt lat="46.27609" lon="6.72477">
        <ele>1050</ele>
        <time>2018-03-10T10:52:05.0000000Z</time>
      </trkpt>
      <trkpt lat="46.27608" lon="6.72476">
        <ele>1055</ele>
        <time>2018-03-10T10:52:09.0000000Z</time>
      </trkpt>
      <trkpt lat="46.27621" lon="6.72491">
        <ele>1070</ele>
        <time>2018-03-10T10:54:08.0000000Z</time>
      </trkpt>
      <trkpt lat="46.2762" lon="6.72492">
        <ele>1069</ele>
        <time>2018-03-10T10:54:11.0000000Z</time>
      </trkpt>
      <trkpt lat="46.27619" lon="6.72494">
        <ele>1072</ele>
        <time>2018-03-10T10:54:14.0000000Z</time>
      </trkpt>
      <trkpt lat="46.2762" lon="6.72494">
        <ele>1075</ele>
        <time>2018-03-10T10:54:17.0000000Z</time>
      </trkpt>
      <trkpt lat="46.27619" lon="6.7249">
        <ele>1080</ele>
        <time>2018-03-10T10:54:20.0000000Z</time>
      </trkpt>
      <trkpt lat="46.27619" lon="6.72493">
        <ele>1081</ele>
        <time>2018-03-10T10:54:26.0000000Z</time>
      </trkpt>
      <trkpt lat="46.27656" lon="6.72525">
        <ele>1087</ele>
        <time>2018-03-10T10:56:03.0000000Z</time>
      </trkpt>
      <trkpt lat="46.2766" lon="6.72523">
        <ele>1085</ele>
        <time>2018-03-10T10:56:15.0000000Z</time>
      </trkpt>
      <trkpt lat="46.27663" lon="6.72524">
        <ele>1084</ele>
        <time>2018-03-10T10:56:18.0000000Z</time>
      </trkpt>
      <trkpt lat="46.27664" lon="6.72525">
        <ele>1084</ele>
        <time>2018-03-10T10:56:21.0000000Z</time>
      </trkpt>
      <trkpt lat="46.27721" lon="6.72555">
        <ele>1087</ele>
        <time>2018-03-10T10:58:15.0000000Z</time>
      </trkpt>
      <trkpt lat="46.2777" lon="6.72583">
        <ele>1116</ele>
        <time>2018-03-10T11:00:14.0000000Z</time>
      </trkpt>
      <trkpt lat="46.27798" lon="6.72676">
        <ele>1134</ele>
        <time>2018-03-10T11:02:19.0000000Z</time>
      </trkpt>
      <trkpt lat="46.27797" lon="6.72684">
        <ele>1127</ele>
        <time>2018-03-10T11:02:29.0000000Z</time>
      </trkpt>
      <trkpt lat="46.27796" lon="6.72684">
        <ele>1128</ele>
        <time>2018-03-10T11:02:36.0000000Z</time>
      </trkpt>
      <trkpt lat="46.27802" lon="6.72744">
        <ele>1144</ele>
        <time>2018-03-10T11:04:03.0000000Z</time>
      </trkpt>
      <trkpt lat="46.27798" lon="6.72749">
        <ele>1140</ele>
        <time>2018-03-10T11:04:06.0000000Z</time>
      </trkpt>
      <trkpt lat="46.27791" lon="6.72748">
        <ele>1153</ele>
        <time>2018-03-10T11:04:09.0000000Z</time>
      </trkpt>
      <trkpt lat="46.27792" lon="6.72746">
        <ele>1165</ele>
        <time>2018-03-10T11:04:14.0000000Z</time>
      </trkpt>
      <trkpt lat="46.27801" lon="6.72745">
        <ele>1172</ele>
        <time>2018-03-10T11:04:21.0000000Z</time>
      </trkpt>
      <trkpt lat="46.27821" lon="6.72766">
        <ele>1122</ele>
        <time>2018-03-10T11:06:12.0000000Z</time>
      </trkpt>
      <trkpt lat="46.27815" lon="6.72821">
        <ele>1135</ele>
        <time>2018-03-10T11:08:15.0000000Z</time>
      </trkpt>
      <trkpt lat="46.27815" lon="6.72825">
        <ele>1132</ele>
        <time>2018-03-10T11:08:18.0000000Z</time>
      </trkpt>
      <trkpt lat="46.27858" lon="6.72877">
        <ele>1147</ele>
        <time>2018-03-10T11:10:11.0000000Z</time>
      </trkpt>
      <trkpt lat="46.2786" lon="6.72937">
        <ele>1145</ele>
        <time>2018-03-10T11:12:07.0000000Z</time>
      </trkpt>
      <trkpt lat="46.27894" lon="6.7301">
        <ele>1169</ele>
        <time>2018-03-10T11:14:07.0000000Z</time>
      </trkpt>
      <trkpt lat="46.27887" lon="6.73006">
        <ele>1165</ele>
        <time>2018-03-10T11:16:06.0000000Z</time>
      </trkpt>
      <trkpt lat="46.27877" lon="6.73104">
        <ele>1177</ele>
        <time>2018-03-10T11:18:03.0000000Z</time>
      </trkpt>
      <trkpt lat="46.27878" lon="6.73104">
        <ele>1176</ele>
        <time>2018-03-10T11:18:06.0000000Z</time>
      </trkpt>
      <trkpt lat="46.27881" lon="6.73104">
        <ele>1178</ele>
        <time>2018-03-10T11:18:09.0000000Z</time>
      </trkpt>
      <trkpt lat="46.27883" lon="6.73102">
        <ele>1178</ele>
        <time>2018-03-10T11:18:14.0000000Z</time>
      </trkpt>
      <trkpt lat="46.27868" lon="6.73127">
        <ele>1144</ele>
        <time>2018-03-10T11:19:55.0000000Z</time>
      </trkpt>
      <trkpt lat="46.27869" lon="6.73138">
        <ele>1171</ele>
        <time>2018-03-10T11:20:12.0000000Z</time>
      </trkpt>
      <trkpt lat="46.27839" lon="6.73214">
        <ele>1223</ele>
        <time>2018-03-10T11:22:15.0000000Z</time>
      </trkpt>
      <trkpt lat="46.2784" lon="6.73216">
        <ele>1226</ele>
        <time>2018-03-10T11:22:18.0000000Z</time>
      </trkpt>
      <trkpt lat="46.27856" lon="6.7334">
        <ele>1212</ele>
        <time>2018-03-10T11:24:12.0000000Z</time>
      </trkpt>
      <trkpt lat="46.27859" lon="6.73346">
        <ele>1210</ele>
        <time>2018-03-10T11:24:16.0000000Z</time>
      </trkpt>
      <trkpt lat="46.27858" lon="6.73349">
        <ele>1207</ele>
        <time>2018-03-10T11:24:19.0000000Z</time>
      </trkpt>
      <trkpt lat="46.2787" lon="6.73444">
        <ele>1233</ele>
        <time>2018-03-10T11:26:14.0000000Z</time>
      </trkpt>
      <trkpt lat="46.27876" lon="6.73542">
        <ele>1239</ele>
        <time>2018-03-10T11:28:07.0000000Z</time>
      </trkpt>
      <trkpt lat="46.27871" lon="6.73556">
        <ele>1231</ele>
        <time>2018-03-10T11:30:03.0000000Z</time>
      </trkpt>
      <trkpt lat="46.27873" lon="6.73556">
        <ele>1231</ele>
        <time>2018-03-10T11:30:07.0000000Z</time>
      </trkpt>
      <trkpt lat="46.27832" lon="6.73625">
        <ele>1253</ele>
        <time>2018-03-10T11:32:00.0000000Z</time>
      </trkpt>
      <trkpt lat="46.2783" lon="6.73625">
        <ele>1255</ele>
        <time>2018-03-10T11:32:05.0000000Z</time>
      </trkpt>
      <trkpt lat="46.27793" lon="6.73607">
        <ele>1267</ele>
        <time>2018-03-10T11:34:07.0000000Z</time>
      </trkpt>
      <trkpt lat="46.27767" lon="6.7357">
        <ele>1327</ele>
        <time>2018-03-10T11:36:26.0000000Z</time>
      </trkpt>
      <trkpt lat="46.27704" lon="6.73531">
        <ele>1314</ele>
        <time>2018-03-10T11:38:06.0000000Z</time>
      </trkpt>
      <trkpt lat="46.27653" lon="6.73484">
        <ele>1319</ele>
        <time>2018-03-10T11:40:26.0000000Z</time>
      </trkpt>
      <trkpt lat="46.27615" lon="6.73422">
        <ele>1331</ele>
        <time>2018-03-10T11:42:06.0000000Z</time>
      </trkpt>
      <trkpt lat="46.27554" lon="6.73324">
        <ele>1345</ele>
        <time>2018-03-10T11:44:02.0000000Z</time>
      </trkpt>
      <trkpt lat="46.27553" lon="6.73322">
        <ele>1352</ele>
        <time>2018-03-10T11:44:08.0000000Z</time>
      </trkpt>
      <trkpt lat="46.27507" lon="6.73312">
        <ele>1385</ele>
        <time>2018-03-10T11:46:14.0000000Z</time>
      </trkpt>
      <trkpt lat="46.27491" lon="6.73318">
        <ele>1367</ele>
        <time>2018-03-10T11:48:15.0000000Z</time>
      </trkpt>
      <trkpt lat="46.27484" lon="6.73374">
        <ele>1365</ele>
        <time>2018-03-10T11:50:08.0000000Z</time>
      </trkpt>
      <trkpt lat="46.27444" lon="6.73477">
        <ele>1427</ele>
        <time>2018-03-10T11:53:07.0000000Z</time>
      </trkpt>
      <trkpt lat="46.27448" lon="6.73523">
        <ele>1390</ele>
        <time>2018-03-10T11:53:59.0000000Z</time>
      </trkpt>
      <trkpt lat="46.27449" lon="6.73527">
        <ele>1390</ele>
        <time>2018-03-10T11:54:09.0000000Z</time>
      </trkpt>
      <trkpt lat="46.27455" lon="6.73619">
        <ele>1408</ele>
        <time>2018-03-10T11:56:11.0000000Z</time>
      </trkpt>
      <trkpt lat="46.27458" lon="6.73623">
        <ele>1408</ele>
        <time>2018-03-10T11:56:14.0000000Z</time>
      </trkpt>
      <trkpt lat="46.27465" lon="6.73737">
        <ele>1400</ele>
        <time>2018-03-10T11:58:07.0000000Z</time>
      </trkpt>
      <trkpt lat="46.27463" lon="6.7386">
        <ele>1397</ele>
        <time>2018-03-10T12:00:07.0000000Z</time>
      </trkpt>
      <trkpt lat="46.27466" lon="6.73981">
        <ele>1410</ele>
        <time>2018-03-10T12:02:07.0000000Z</time>
      </trkpt>
      <trkpt lat="46.27507" lon="6.74132">
        <ele>1399</ele>
        <time>2018-03-10T12:04:12.0000000Z</time>
      </trkpt>
      <trkpt lat="46.27535" lon="6.74276">
        <ele>1398</ele>
        <time>2018-03-10T12:06:07.0000000Z</time>
      </trkpt>
      <trkpt lat="46.27537" lon="6.74278">
        <ele>1400</ele>
        <time>2018-03-10T12:06:10.0000000Z</time>
      </trkpt>
      <trkpt lat="46.27567" lon="6.74436">
        <ele>1398</ele>
        <time>2018-03-10T12:08:08.0000000Z</time>
      </trkpt>
      <trkpt lat="46.27609" lon="6.74572">
        <ele>1398</ele>
        <time>2018-03-10T12:10:02.0000000Z</time>
      </trkpt>
      <trkpt lat="46.27611" lon="6.74576">
        <ele>1397</ele>
        <time>2018-03-10T12:10:05.0000000Z</time>
      </trkpt>
      <trkpt lat="46.27539" lon="6.74709">
        <ele>1392</ele>
        <time>2018-03-10T12:12:10.0000000Z</time>
      </trkpt>
      <trkpt lat="46.27473" lon="6.7482">
        <ele>1404</ele>
        <time>2018-03-10T12:14:08.0000000Z</time>
      </trkpt>
      <trkpt lat="46.27472" lon="6.74822">
        <ele>1403</ele>
        <time>2018-03-10T12:14:11.0000000Z</time>
      </trkpt>
      <trkpt lat="46.27465" lon="6.7494">
        <ele>1416</ele>
        <time>2018-03-10T12:16:11.0000000Z</time>
      </trkpt>
      <trkpt lat="46.27544" lon="6.75057">
        <ele>1406</ele>
        <time>2018-03-10T12:18:04.0000000Z</time>
      </trkpt>
      <trkpt lat="46.27644" lon="6.75117">
        <ele>1410</ele>
        <time>2018-03-10T12:20:09.0000000Z</time>
      </trkpt>
      <trkpt lat="46.27737" lon="6.75191">
        <ele>1402</ele>
        <time>2018-03-10T12:22:06.0000000Z</time>
      </trkpt>
      <trkpt lat="46.27799" lon="6.7533">
        <ele>1403</ele>
        <time>2018-03-10T12:24:06.0000000Z</time>
      </trkpt>
      <trkpt lat="46.27831" lon="6.75482">
        <ele>1406</ele>
        <time>2018-03-10T12:26:05.0000000Z</time>
      </trkpt>
      <trkpt lat="46.27895" lon="6.75645">
        <ele>1400</ele>
        <time>2018-03-10T12:28:06.0000000Z</time>
      </trkpt>
      <trkpt lat="46.27988" lon="6.75766">
        <ele>1398</ele>
        <time>2018-03-10T12:30:07.0000000Z</time>
      </trkpt>
      <trkpt lat="46.28013" lon="6.75938">
        <ele>1405</ele>
        <time>2018-03-10T12:32:11.0000000Z</time>
      </trkpt>
      <trkpt lat="46.28004" lon="6.76108">
        <ele>1390</ele>
        <time>2018-03-10T12:34:09.0000000Z</time>
      </trkpt>
      <trkpt lat="46.27979" lon="6.7623">
        <ele>1405</ele>
        <time>2018-03-10T12:36:05.0000000Z</time>
      </trkpt>
      <trkpt lat="46.27979" lon="6.76232">
        <ele>1403</ele>
        <time>2018-03-10T12:36:08.0000000Z</time>
      </trkpt>
      <trkpt lat="46.28035" lon="6.76347">
        <ele>1413</ele>
        <time>2018-03-10T12:38:04.0000000Z</time>
      </trkpt>
      <trkpt lat="46.28104" lon="6.76464">
        <ele>1417</ele>
        <time>2018-03-10T12:40:08.0000000Z</time>
      </trkpt>
      <trkpt lat="46.28123" lon="6.76503">
        <ele>1404</ele>
        <time>2018-03-10T12:42:01.0000000Z</time>
      </trkpt>
      <trkpt lat="46.28128" lon="6.76511">
        <ele>1396</ele>
        <time>2018-03-10T12:42:08.0000000Z</time>
      </trkpt>
      <trkpt lat="46.28161" lon="6.76676">
        <ele>1449</ele>
        <time>2018-03-10T12:44:18.0000000Z</time>
      </trkpt>
      <trkpt lat="46.28257" lon="6.76843">
        <ele>1378</ele>
        <time>2018-03-10T12:46:09.0000000Z</time>
      </trkpt>
      <trkpt lat="46.28252" lon="6.7705">
        <ele>1405</ele>
        <time>2018-03-10T12:48:10.0000000Z</time>
      </trkpt>
      <trkpt lat="46.28252" lon="6.77056">
        <ele>1408</ele>
        <time>2018-03-10T12:48:13.0000000Z</time>
      </trkpt>
      <trkpt lat="46.28329" lon="6.77136">
        <ele>1330</ele>
        <time>2018-03-10T12:50:04.0000000Z</time>
      </trkpt>
      <trkpt lat="46.28437" lon="6.77229">
        <ele>1311</ele>
        <time>2018-03-10T12:52:06.0000000Z</time>
      </trkpt>
      <trkpt lat="46.28463" lon="6.77363">
        <ele>1316</ele>
        <time>2018-03-10T12:54:06.0000000Z</time>
      </trkpt>
      <trkpt lat="46.28533" lon="6.7753">
        <ele>1291</ele>
        <time>2018-03-10T12:56:06.0000000Z</time>
      </trkpt>
      <trkpt lat="46.28658" lon="6.77635">
        <ele>1256</ele>
        <time>2018-03-10T12:58:08.0000000Z</time>
      </trkpt>
      <trkpt lat="46.28637" lon="6.77826">
        <ele>1276</ele>
        <time>2018-03-10T13:00:11.0000000Z</time>
      </trkpt>
      <trkpt lat="46.28637" lon="6.77831">
        <ele>1276</ele>
        <time>2018-03-10T13:00:14.0000000Z</time>
      </trkpt>
      <trkpt lat="46.28637" lon="6.77836">
        <ele>1282</ele>
        <time>2018-03-10T13:00:17.0000000Z</time>
      </trkpt>
      <trkpt lat="46.28564" lon="6.77982">
        <ele>1262</ele>
        <time>2018-03-10T13:02:10.0000000Z</time>
      </trkpt>
      <trkpt lat="46.28466" lon="6.78069">
        <ele>1277</ele>
        <time>2018-03-10T13:04:07.0000000Z</time>
      </trkpt>
      <trkpt lat="46.28505" lon="6.78246">
        <ele>1284</ele>
        <time>2018-03-10T13:06:07.0000000Z</time>
      </trkpt>
      <trkpt lat="46.28585" lon="6.78257">
        <ele>1243</ele>
        <time>2018-03-10T13:08:02.0000000Z</time>
      </trkpt>
      <trkpt lat="46.28586" lon="6.78259">
        <ele>1242</ele>
        <time>2018-03-10T13:08:05.0000000Z</time>
      </trkpt>
      <trkpt lat="46.28587" lon="6.78258">
        <ele>1240</ele>
        <time>2018-03-10T13:08:08.0000000Z</time>
      </trkpt>
      <trkpt lat="46.28587" lon="6.78261">
        <ele>1247</ele>
        <time>2018-03-10T13:08:16.0000000Z</time>
      </trkpt>
      <trkpt lat="46.28679" lon="6.78283">
        <ele>1258</ele>
        <time>2018-03-10T13:10:08.0000000Z</time>
      </trkpt>
      <trkpt lat="46.28687" lon="6.78281">
        <ele>1251</ele>
        <time>2018-03-10T13:10:17.0000000Z</time>
      </trkpt>
      <trkpt lat="46.2877" lon="6.78273">
        <ele>1224</ele>
        <time>2018-03-10T13:12:02.0000000Z</time>
      </trkpt>
      <trkpt lat="46.28773" lon="6.78278">
        <ele>1218</ele>
        <time>2018-03-10T13:12:09.0000000Z</time>
      </trkpt>
      <trkpt lat="46.28776" lon="6.78279">
        <ele>1214</ele>
        <time>2018-03-10T13:12:12.0000000Z</time>
      </trkpt>
      <trkpt lat="46.28868" lon="6.78423">
        <ele>1139</ele>
        <time>2018-03-10T13:14:17.0000000Z</time>
      </trkpt>
      <trkpt lat="46.28869" lon="6.78428">
        <ele>1140</ele>
        <time>2018-03-10T13:14:20.0000000Z</time>
      </trkpt>
      <trkpt lat="46.28869" lon="6.78433">
        <ele>1139</ele>
        <time>2018-03-10T13:14:23.0000000Z</time>
      </trkpt>
      <trkpt lat="46.28869" lon="6.78441">
        <ele>1138</ele>
        <time>2018-03-10T13:14:27.0000000Z</time>
      </trkpt>
      <trkpt lat="46.28872" lon="6.78444">
        <ele>1136</ele>
        <time>2018-03-10T13:14:30.0000000Z</time>
      </trkpt>
      <trkpt lat="46.28874" lon="6.78445">
        <ele>1136</ele>
        <time>2018-03-10T13:14:33.0000000Z</time>
      </trkpt>
      <trkpt lat="46.28874" lon="6.7845">
        <ele>1132</ele>
        <time>2018-03-10T13:14:36.0000000Z</time>
      </trkpt>
      <trkpt lat="46.28904" lon="6.78472">
        <ele>1103</ele>
        <time>2018-03-10T13:16:38.0000000Z</time>
      </trkpt>
      <trkpt lat="46.28905" lon="6.78468">
        <ele>1095</ele>
        <time>2018-03-10T13:16:41.0000000Z</time>
      </trkpt>
      <trkpt lat="46.28907" lon="6.78465">
        <ele>1084</ele>
        <time>2018-03-10T13:16:46.0000000Z</time>
      </trkpt>
      <trkpt lat="46.289" lon="6.78527">
        <ele>1128</ele>
        <time>2018-03-10T13:18:15.0000000Z</time>
      </trkpt>
      <trkpt lat="46.28902" lon="6.7853">
        <ele>1132</ele>
        <time>2018-03-10T13:18:18.0000000Z</time>
      </trkpt>
      <trkpt lat="46.28906" lon="6.78529">
        <ele>1135</ele>
        <time>2018-03-10T13:18:21.0000000Z</time>
      </trkpt>
      <trkpt lat="46.28912" lon="6.7853">
        <ele>1136</ele>
        <time>2018-03-10T13:18:24.0000000Z</time>
      </trkpt>
      <trkpt lat="46.28913" lon="6.78529">
        <ele>1138</ele>
        <time>2018-03-10T13:18:27.0000000Z</time>
      </trkpt>
      <trkpt lat="46.28911" lon="6.78533">
        <ele>1142</ele>
        <time>2018-03-10T13:18:30.0000000Z</time>
      </trkpt>
      <trkpt lat="46.28909" lon="6.78538">
        <ele>1145</ele>
        <time>2018-03-10T13:18:33.0000000Z</time>
      </trkpt>
      <trkpt lat="46.28907" lon="6.78667">
        <ele>1118</ele>
        <time>2018-03-10T13:20:12.0000000Z</time>
      </trkpt>
      <trkpt lat="46.28907" lon="6.78667">
        <ele>1117</ele>
        <time>2018-03-10T13:20:15.0000000Z</time>
      </trkpt>
      <trkpt lat="46.28939" lon="6.78634">
        <ele>1131</ele>
        <time>2018-03-10T13:22:11.0000000Z</time>
      </trkpt>
      <trkpt lat="46.28992" lon="6.78566">
        <ele>1100</ele>
        <time>2018-03-10T13:24:10.0000000Z</time>
      </trkpt>
      <trkpt lat="46.28988" lon="6.78567">
        <ele>1094</ele>
        <time>2018-03-10T13:24:18.0000000Z</time>
      </trkpt>
      <trkpt lat="46.28988" lon="6.78569">
        <ele>1097</ele>
        <time>2018-03-10T13:24:31.0000000Z</time>
      </trkpt>
      <trkpt lat="46.29025" lon="6.78522">
        <ele>1049</ele>
        <time>2018-03-10T13:26:13.0000000Z</time>
      </trkpt>
      <trkpt lat="46.29031" lon="6.78516">
        <ele>1044</ele>
        <time>2018-03-10T13:26:16.0000000Z</time>
      </trkpt>
      <trkpt lat="46.29033" lon="6.78512">
        <ele>1045</ele>
        <time>2018-03-10T13:26:18.0000000Z</time>
      </trkpt>
      <trkpt lat="46.29039" lon="6.78498">
        <ele>1029</ele>
        <time>2018-03-10T13:26:23.0000000Z</time>
      </trkpt>
      <trkpt lat="46.29044" lon="6.78493">
        <ele>1024</ele>
        <time>2018-03-10T13:26:26.0000000Z</time>
      </trkpt>
      <trkpt lat="46.29047" lon="6.78491">
        <ele>1019</ele>
        <time>2018-03-10T13:26:29.0000000Z</time>
      </trkpt>
      <trkpt lat="46.29047" lon="6.7849">
        <ele>1024</ele>
        <time>2018-03-10T13:26:35.0000000Z</time>
      </trkpt>
      <trkpt lat="46.29113" lon="6.78382">
        <ele>1010</ele>
        <time>2018-03-10T13:28:16.0000000Z</time>
      </trkpt>
      <trkpt lat="46.29143" lon="6.78493">
        <ele>976</ele>
        <time>2018-03-10T13:30:08.0000000Z</time>
      </trkpt>
      <trkpt lat="46.29152" lon="6.78585">
        <ele>1022</ele>
        <time>2018-03-10T13:32:12.0000000Z</time>
      </trkpt>
      <trkpt lat="46.29184" lon="6.78729">
        <ele>990</ele>
        <time>2018-03-10T13:34:03.0000000Z</time>
      </trkpt>
      <trkpt lat="46.29186" lon="6.78732">
        <ele>986</ele>
        <time>2018-03-10T13:34:09.0000000Z</time>
      </trkpt>
      <trkpt lat="46.29203" lon="6.78916">
        <ele>992</ele>
        <time>2018-03-10T13:36:10.0000000Z</time>
      </trkpt>
      <trkpt lat="46.2922" lon="6.79099">
        <ele>992</ele>
        <time>2018-03-10T13:38:09.0000000Z</time>
      </trkpt>
      <trkpt lat="46.29168" lon="6.79228">
        <ele>980</ele>
        <time>2018-03-10T13:40:11.0000000Z</time>
      </trkpt>
      <trkpt lat="46.29099" lon="6.79344">
        <ele>1061</ele>
        <time>2018-03-10T13:42:03.0000000Z</time>
      </trkpt>
      <trkpt lat="46.29099" lon="6.79348">
        <ele>1065</ele>
        <time>2018-03-10T13:42:06.0000000Z</time>
      </trkpt>
      <trkpt lat="46.29098" lon="6.79351">
        <ele>1065</ele>
        <time>2018-03-10T13:42:09.0000000Z</time>
      </trkpt>
      <trkpt lat="46.29113" lon="6.79492">
        <ele>976</ele>
        <time>2018-03-10T13:44:11.0000000Z</time>
      </trkpt>
      <trkpt lat="46.29066" lon="6.7969">
        <ele>1004</ele>
        <time>2018-03-10T13:46:07.0000000Z</time>
      </trkpt>
      <trkpt lat="46.29117" lon="6.79841">
        <ele>1007</ele>
        <time>2018-03-10T13:48:08.0000000Z</time>
      </trkpt>
      <trkpt lat="46.2913" lon="6.79962">
        <ele>1013</ele>
        <time>2018-03-10T13:49:58.0000000Z</time>
      </trkpt>
      <trkpt lat="46.29134" lon="6.79955">
        <ele>1002</ele>
        <time>2018-03-10T14:23:18.0000000Z</time>
      </trkpt>
      <trkpt lat="46.29138" lon="6.79953">
        <ele>980</ele>
        <time>2018-03-10T14:24:15.0000000Z</time>
      </trkpt>
      <trkpt lat="46.29137" lon="6.79927">
        <ele>992</ele>
        <time>2018-03-10T14:26:07.0000000Z</time>
      </trkpt>
      <trkpt lat="46.29038" lon="6.79828">
        <ele>992</ele>
        <time>2018-03-10T14:28:15.0000000Z</time>
      </trkpt>
      <trkpt lat="46.28949" lon="6.79935">
        <ele>1009</ele>
        <time>2018-03-10T14:30:17.0000000Z</time>
      </trkpt>
      <trkpt lat="46.28946" lon="6.79938">
        <ele>1010</ele>
        <time>2018-03-10T14:30:21.0000000Z</time>
      </trkpt>
      <trkpt lat="46.28868" lon="6.79977">
        <ele>1015</ele>
        <time>2018-03-10T14:32:03.0000000Z</time>
      </trkpt>
      <trkpt lat="46.28867" lon="6.79976">
        <ele>1015</ele>
        <time>2018-03-10T14:32:06.0000000Z</time>
      </trkpt>
      <trkpt lat="46.28821" lon="6.80119">
        <ele>1011</ele>
        <time>2018-03-10T14:34:05.0000000Z</time>
      </trkpt>
      <trkpt lat="46.2881" lon="6.8029">
        <ele>1021</ele>
        <time>2018-03-10T14:36:06.0000000Z</time>
      </trkpt>
      <trkpt lat="46.28747" lon="6.80443">
        <ele>1011</ele>
        <time>2018-03-10T14:38:05.0000000Z</time>
      </trkpt>
      <trkpt lat="46.28672" lon="6.80547">
        <ele>1021</ele>
        <time>2018-03-10T14:40:07.0000000Z</time>
      </trkpt>
      <trkpt lat="46.28606" lon="6.8068">
        <ele>1025</ele>
        <time>2018-03-10T14:42:05.0000000Z</time>
      </trkpt>
      <trkpt lat="46.28547" lon="6.80795">
        <ele>1031</ele>
        <time>2018-03-10T14:44:07.0000000Z</time>
      </trkpt>
      <trkpt lat="46.28476" lon="6.80948">
        <ele>1023</ele>
        <time>2018-03-10T14:46:09.0000000Z</time>
      </trkpt>
      <trkpt lat="46.28379" lon="6.81034">
        <ele>1027</ele>
        <time>2018-03-10T14:48:03.0000000Z</time>
      </trkpt>
      <trkpt lat="46.28375" lon="6.81037">
        <ele>1026</ele>
        <time>2018-03-10T14:48:08.0000000Z</time>
      </trkpt>
      <trkpt lat="46.2832" lon="6.81201">
        <ele>1036</ele>
        <time>2018-03-10T14:50:09.0000000Z</time>
      </trkpt>
      <trkpt lat="46.2827" lon="6.81254">
        <ele>1037</ele>
        <time>2018-03-10T14:52:09.0000000Z</time>
      </trkpt>
      <trkpt lat="46.28193" lon="6.81304">
        <ele>1046</ele>
        <time>2018-03-10T14:54:06.0000000Z</time>
      </trkpt>
      <trkpt lat="46.28139" lon="6.81462">
        <ele>1051</ele>
        <time>2018-03-10T14:56:07.0000000Z</time>
      </trkpt>
      <trkpt lat="46.28046" lon="6.816">
        <ele>1046</ele>
        <time>2018-03-10T14:58:07.0000000Z</time>
      </trkpt>
      <trkpt lat="46.27975" lon="6.81739">
        <ele>1055</ele>
        <time>2018-03-10T15:00:07.0000000Z</time>
      </trkpt>
      <trkpt lat="46.27885" lon="6.81854">
        <ele>1055</ele>
        <time>2018-03-10T15:02:06.0000000Z</time>
      </trkpt>
      <trkpt lat="46.27962" lon="6.81798">
        <ele>1048</ele>
        <time>2018-03-10T15:04:11.0000000Z</time>
      </trkpt>
      <trkpt lat="46.27917" lon="6.81952">
        <ele>1044</ele>
        <time>2018-03-10T15:06:05.0000000Z</time>
      </trkpt>
      <trkpt lat="46.27831" lon="6.82063">
        <ele>1047</ele>
        <time>2018-03-10T15:08:05.0000000Z</time>
      </trkpt>
      <trkpt lat="46.27748" lon="6.8216">
        <ele>1049</ele>
        <time>2018-03-10T15:10:06.0000000Z</time>
      </trkpt>
      <trkpt lat="46.27703" lon="6.82224">
        <ele>1047</ele>
        <time>2018-03-10T15:12:06.0000000Z</time>
      </trkpt>
      <trkpt lat="46.27623" lon="6.82343">
        <ele>1050</ele>
        <time>2018-03-10T15:14:06.0000000Z</time>
      </trkpt>
      <trkpt lat="46.27547" lon="6.82464">
        <ele>1063</ele>
        <time>2018-03-10T15:16:07.0000000Z</time>
      </trkpt>
      <trkpt lat="46.27488" lon="6.82618">
        <ele>1056</ele>
        <time>2018-03-10T15:18:08.0000000Z</time>
      </trkpt>
      <trkpt lat="46.27399" lon="6.82665">
        <ele>1065</ele>
        <time>2018-03-10T15:20:04.0000000Z</time>
      </trkpt>
      <trkpt lat="46.27396" lon="6.82667">
        <ele>1064</ele>
        <time>2018-03-10T15:20:07.0000000Z</time>
      </trkpt>
      <trkpt lat="46.27315" lon="6.82705">
        <ele>1072</ele>
        <time>2018-03-10T15:22:07.0000000Z</time>
      </trkpt>
      <trkpt lat="46.27251" lon="6.82798">
        <ele>1084</ele>
        <time>2018-03-10T15:24:04.0000000Z</time>
      </trkpt>
      <trkpt lat="46.27248" lon="6.82801">
        <ele>1083</ele>
        <time>2018-03-10T15:24:07.0000000Z</time>
      </trkpt>
      <trkpt lat="46.27163" lon="6.82903">
        <ele>1093</ele>
        <time>2018-03-10T15:26:09.0000000Z</time>
      </trkpt>
      <trkpt lat="46.27095" lon="6.82989">
        <ele>1093</ele>
        <time>2018-03-10T15:28:06.0000000Z</time>
      </trkpt>
      <trkpt lat="46.27011" lon="6.83084">
        <ele>1093</ele>
        <time>2018-03-10T15:30:06.0000000Z</time>
      </trkpt>
      <trkpt lat="46.26929" lon="6.83165">
        <ele>1097</ele>
        <time>2018-03-10T15:32:05.0000000Z</time>
      </trkpt>
      <trkpt lat="46.26814" lon="6.83206">
        <ele>1122</ele>
        <time>2018-03-10T15:34:11.0000000Z</time>
      </trkpt>
      <trkpt lat="46.26736" lon="6.83262">
        <ele>1122</ele>
        <time>2018-03-10T15:36:08.0000000Z</time>
      </trkpt>
      <trkpt lat="46.26653" lon="6.83278">
        <ele>1119</ele>
        <time>2018-03-10T15:37:59.0000000Z</time>
      </trkpt>
      <trkpt lat="46.26641" lon="6.83282">
        <ele>1119</ele>
        <time>2018-03-10T15:38:08.0000000Z</time>
      </trkpt>
      <trkpt lat="46.26537" lon="6.83314">
        <ele>1130</ele>
        <time>2018-03-10T15:40:08.0000000Z</time>
      </trkpt>
      <trkpt lat="46.26434" lon="6.8331">
        <ele>1127</ele>
        <time>2018-03-10T15:42:02.0000000Z</time>
      </trkpt>
      <trkpt lat="46.2643" lon="6.8331">
        <ele>1125</ele>
        <time>2018-03-10T15:42:07.0000000Z</time>
      </trkpt>
      <trkpt lat="46.26322" lon="6.83309">
        <ele>1128</ele>
        <time>2018-03-10T15:44:06.0000000Z</time>
      </trkpt>
      <trkpt lat="46.26254" lon="6.83307">
        <ele>1140</ele>
        <time>2018-03-10T15:46:09.0000000Z</time>
      </trkpt>
      <trkpt lat="46.26177" lon="6.83241">
        <ele>1151</ele>
        <time>2018-03-10T15:47:58.0000000Z</time>
      </trkpt>
      <trkpt lat="46.26169" lon="6.8324">
        <ele>1157</ele>
        <time>2018-03-10T15:48:09.0000000Z</time>
      </trkpt>
      <trkpt lat="46.26168" lon="6.83238">
        <ele>1158</ele>
        <time>2018-03-10T15:48:12.0000000Z</time>
      </trkpt>
      <trkpt lat="46.26092" lon="6.83139">
        <ele>1150</ele>
        <time>2018-03-10T15:50:08.0000000Z</time>
      </trkpt>
      <trkpt lat="46.26018" lon="6.83054">
        <ele>1166</ele>
        <time>2018-03-10T15:52:10.0000000Z</time>
      </trkpt>
      <trkpt lat="46.2596" lon="6.8295">
        <ele>1157</ele>
        <time>2018-03-10T15:54:07.0000000Z</time>
      </trkpt>
      <trkpt lat="46.25905" lon="6.82841">
        <ele>1156</ele>
        <time>2018-03-10T15:56:06.0000000Z</time>
      </trkpt>
      <trkpt lat="46.25868" lon="6.8272">
        <ele>1166</ele>
        <time>2018-03-10T15:57:59.0000000Z</time>
      </trkpt>
      <trkpt lat="46.25869" lon="6.82714">
        <ele>1165</ele>
        <time>2018-03-10T15:58:04.0000000Z</time>
      </trkpt>
      <trkpt lat="46.25869" lon="6.82711">
        <ele>1163</ele>
        <time>2018-03-10T15:58:07.0000000Z</time>
      </trkpt>
      <trkpt lat="46.25853" lon="6.82608">
        <ele>1170</ele>
        <time>2018-03-10T16:00:06.0000000Z</time>
      </trkpt>
      <trkpt lat="46.25813" lon="6.82479">
        <ele>1176</ele>
        <time>2018-03-10T16:02:11.0000000Z</time>
      </trkpt>
      <trkpt lat="46.25779" lon="6.82495">
        <ele>1126</ele>
        <time>2018-03-10T16:04:06.0000000Z</time>
      </trkpt>
      <trkpt lat="46.25715" lon="6.82539">
        <ele>1122</ele>
        <time>2018-03-10T16:06:06.0000000Z</time>
      </trkpt>
      <trkpt lat="46.25628" lon="6.82626">
        <ele>1121</ele>
        <time>2018-03-10T16:08:06.0000000Z</time>
      </trkpt>
      <trkpt lat="46.25595" lon="6.82577">
        <ele>1121</ele>
        <time>2018-03-10T16:10:03.0000000Z</time>
      </trkpt>
      <trkpt lat="46.25593" lon="6.8257">
        <ele>1120</ele>
        <time>2018-03-10T16:10:07.0000000Z</time>
      </trkpt>
      <trkpt lat="46.25531" lon="6.82409">
        <ele>1122</ele>
        <time>2018-03-10T16:12:01.0000000Z</time>
      </trkpt>
      <trkpt lat="46.2553" lon="6.82405">
        <ele>1124</ele>
        <time>2018-03-10T16:12:04.0000000Z</time>
      </trkpt>
      <trkpt lat="46.25529" lon="6.82401">
        <ele>1125</ele>
        <time>2018-03-10T16:12:07.0000000Z</time>
      </trkpt>
      <trkpt lat="46.25506" lon="6.82275">
        <ele>1127</ele>
        <time>2018-03-10T16:13:58.0000000Z</time>
      </trkpt>
      <trkpt lat="46.25502" lon="6.82266">
        <ele>1124</ele>
        <time>2018-03-10T16:14:07.0000000Z</time>
      </trkpt>
      <trkpt lat="46.25438" lon="6.82084">
        <ele>1126</ele>
        <time>2018-03-10T16:16:10.0000000Z</time>
      </trkpt>
      <trkpt lat="46.25377" lon="6.81964">
        <ele>1136</ele>
        <time>2018-03-10T16:18:06.0000000Z</time>
      </trkpt>
      <trkpt lat="46.25347" lon="6.81944">
        <ele>1135</ele>
        <time>2018-03-10T16:20:06.0000000Z</time>
      </trkpt>
      <trkpt lat="46.25268" lon="6.81917">
        <ele>1142</ele>
        <time>2018-03-10T16:22:07.0000000Z</time>
      </trkpt>
      <trkpt lat="46.2523" lon="6.81779">
        <ele>1145</ele>
        <time>2018-03-10T16:24:07.0000000Z</time>
      </trkpt>
      <trkpt lat="46.25179" lon="6.81655">
        <ele>1145</ele>
        <time>2018-03-10T16:26:06.0000000Z</time>
      </trkpt>
      <trkpt lat="46.25117" lon="6.81574">
        <ele>1161</ele>
        <time>2018-03-10T16:28:06.0000000Z</time>
      </trkpt>
      <trkpt lat="46.2507" lon="6.81481">
        <ele>1168</ele>
        <time>2018-03-10T16:30:00.0000000Z</time>
      </trkpt>
      <trkpt lat="46.25069" lon="6.81477">
        <ele>1169</ele>
        <time>2018-03-10T16:30:04.0000000Z</time>
      </trkpt>
      <trkpt lat="46.25068" lon="6.81474">
        <ele>1171</ele>
        <time>2018-03-10T16:30:08.0000000Z</time>
      </trkpt>
      <trkpt lat="46.25026" lon="6.81374">
        <ele>1179</ele>
        <time>2018-03-10T16:32:07.0000000Z</time>
      </trkpt>
      <trkpt lat="46.25018" lon="6.81222">
        <ele>1157</ele>
        <time>2018-03-10T16:34:06.0000000Z</time>
      </trkpt>
      <trkpt lat="46.24998" lon="6.81086">
        <ele>1168</ele>
        <time>2018-03-10T16:36:08.0000000Z</time>
      </trkpt>
      <trkpt lat="46.24933" lon="6.8098">
        <ele>1175</ele>
        <time>2018-03-10T16:38:07.0000000Z</time>
      </trkpt>
      <trkpt lat="46.24845" lon="6.80922">
        <ele>1192</ele>
        <time>2018-03-10T16:40:06.0000000Z</time>
      </trkpt>
      <trkpt lat="46.24841" lon="6.80921">
        <ele>1197</ele>
        <time>2018-03-10T16:40:14.0000000Z</time>
      </trkpt>
      <trkpt lat="46.24781" lon="6.8086">
        <ele>1203</ele>
        <time>2018-03-10T16:42:07.0000000Z</time>
      </trkpt>
      <trkpt lat="46.2482" lon="6.80932">
        <ele>1203</ele>
        <time>2018-03-10T16:43:57.0000000Z</time>
      </trkpt>
      <trkpt lat="46.24823" lon="6.80935">
        <ele>1203</ele>
        <time>2018-03-10T16:44:01.0000000Z</time>
      </trkpt>
      <trkpt lat="46.24823" lon="6.80938">
        <ele>1203</ele>
        <time>2018-03-10T16:44:04.0000000Z</time>
      </trkpt>
      <trkpt lat="46.24846" lon="6.81068">
        <ele>1210</ele>
        <time>2018-03-10T16:46:06.0000000Z</time>
      </trkpt>
      <trkpt lat="46.24883" lon="6.81159">
        <ele>1242</ele>
        <time>2018-03-10T16:48:06.0000000Z</time>
      </trkpt>
      <trkpt lat="46.24918" lon="6.813">
        <ele>1222</ele>
        <time>2018-03-10T16:50:01.0000000Z</time>
      </trkpt>
      <trkpt lat="46.24919" lon="6.81304">
        <ele>1222</ele>
        <time>2018-03-10T16:50:04.0000000Z</time>
      </trkpt>
      <trkpt lat="46.24928" lon="6.81406">
        <ele>1230</ele>
        <time>2018-03-10T16:52:06.0000000Z</time>
      </trkpt>
      <trkpt lat="46.24932" lon="6.81515">
        <ele>1231</ele>
        <time>2018-03-10T16:54:05.0000000Z</time>
      </trkpt>
      <trkpt lat="46.24958" lon="6.81635">
        <ele>1237</ele>
        <time>2018-03-10T16:56:06.0000000Z</time>
      </trkpt>
      <trkpt lat="46.24968" lon="6.81733">
        <ele>1245</ele>
        <time>2018-03-10T16:58:06.0000000Z</time>
      </trkpt>
      <trkpt lat="46.24989" lon="6.81835">
        <ele>1247</ele>
        <time>2018-03-10T17:00:07.0000000Z</time>
      </trkpt>
      <trkpt lat="46.25023" lon="6.81928">
        <ele>1263</ele>
        <time>2018-03-10T17:01:59.0000000Z</time>
      </trkpt>
      <trkpt lat="46.25024" lon="6.81931">
        <ele>1263</ele>
        <time>2018-03-10T17:02:02.0000000Z</time>
      </trkpt>
      <trkpt lat="46.25025" lon="6.81934">
        <ele>1263</ele>
        <time>2018-03-10T17:02:05.0000000Z</time>
      </trkpt>
      <trkpt lat="46.25053" lon="6.82086">
        <ele>1263</ele>
        <time>2018-03-10T17:04:06.0000000Z</time>
      </trkpt>
      <trkpt lat="46.25026" lon="6.82135">
        <ele>1273</ele>
        <time>2018-03-10T17:06:05.0000000Z</time>
      </trkpt>
      <trkpt lat="46.24991" lon="6.82134">
        <ele>1289</ele>
        <time>2018-03-10T17:08:05.0000000Z</time>
      </trkpt>
      <trkpt lat="46.24991" lon="6.82148">
        <ele>1286</ele>
        <time>2018-03-10T17:10:07.0000000Z</time>
      </trkpt>
      <trkpt lat="46.25043" lon="6.82205">
        <ele>1272</ele>
        <time>2018-03-10T17:12:05.0000000Z</time>
      </trkpt>
      <trkpt lat="46.25048" lon="6.82315">
        <ele>1264</ele>
        <time>2018-03-10T17:14:06.0000000Z</time>
      </trkpt>
      <trkpt lat="46.25047" lon="6.82432">
        <ele>1278</ele>
        <time>2018-03-10T17:16:05.0000000Z</time>
      </trkpt>
      <trkpt lat="46.25117" lon="6.82475">
        <ele>1284</ele>
        <time>2018-03-10T17:18:05.0000000Z</time>
      </trkpt>
      <trkpt lat="46.2519" lon="6.82553">
        <ele>1285</ele>
        <time>2018-03-10T17:19:53.0000000Z</time>
      </trkpt>
      <trkpt lat="46.252" lon="6.82561">
        <ele>1279</ele>
        <time>2018-03-10T17:20:07.0000000Z</time>
      </trkpt>
      <trkpt lat="46.25241" lon="6.82702">
        <ele>1265</ele>
        <time>2018-03-10T17:22:07.0000000Z</time>
      </trkpt>
      <trkpt lat="46.25249" lon="6.8284">
        <ele>1268</ele>
        <time>2018-03-10T17:24:03.0000000Z</time>
      </trkpt>
      <trkpt lat="46.25249" lon="6.82843">
        <ele>1269</ele>
        <time>2018-03-10T17:24:07.0000000Z</time>
      </trkpt>
      <trkpt lat="46.25247" lon="6.83002">
        <ele>1270</ele>
        <time>2018-03-10T17:26:06.0000000Z</time>
      </trkpt>
      <trkpt lat="46.25277" lon="6.83129">
        <ele>1276</ele>
        <time>2018-03-10T17:28:07.0000000Z</time>
      </trkpt>
      <trkpt lat="46.25343" lon="6.83262">
        <ele>1282</ele>
        <time>2018-03-10T17:30:07.0000000Z</time>
      </trkpt>
      <trkpt lat="46.25408" lon="6.83393">
        <ele>1283</ele>
        <time>2018-03-10T17:32:06.0000000Z</time>
      </trkpt>
      <trkpt lat="46.25465" lon="6.83533">
        <ele>1269</ele>
        <time>2018-03-10T17:34:05.0000000Z</time>
      </trkpt>
      <trkpt lat="46.25497" lon="6.83617">
        <ele>1263</ele>
        <time>2018-03-10T17:36:05.0000000Z</time>
      </trkpt>
      <trkpt lat="46.25579" lon="6.83762">
        <ele>1276</ele>
        <time>2018-03-10T17:38:06.0000000Z</time>
      </trkpt>
      <trkpt lat="46.25658" lon="6.83929">
        <ele>1258</ele>
        <time>2018-03-10T17:39:59.0000000Z</time>
      </trkpt>
      <trkpt lat="46.2566" lon="6.83932">
        <ele>1259</ele>
        <time>2018-03-10T17:40:02.0000000Z</time>
      </trkpt>
      <trkpt lat="46.25663" lon="6.83936">
        <ele>1260</ele>
        <time>2018-03-10T17:40:07.0000000Z</time>
      </trkpt>
      <trkpt lat="46.25732" lon="6.84045">
        <ele>1258</ele>
        <time>2018-03-10T17:42:09.0000000Z</time>
      </trkpt>
      <trkpt lat="46.25795" lon="6.8416">
        <ele>1254</ele>
        <time>2018-03-10T17:44:04.0000000Z</time>
      </trkpt>
      <trkpt lat="46.25797" lon="6.84164">
        <ele>1254</ele>
        <time>2018-03-10T17:44:07.0000000Z</time>
      </trkpt>
      <trkpt lat="46.25801" lon="6.842">
        <ele>1257</ele>
        <time>2018-03-10T17:46:07.0000000Z</time>
      </trkpt>
      <trkpt lat="46.25882" lon="6.84247">
        <ele>1266</ele>
        <time>2018-03-10T17:48:08.0000000Z</time>
      </trkpt>
      <trkpt lat="46.25957" lon="6.84218">
        <ele>1266</ele>
        <time>2018-03-10T17:50:08.0000000Z</time>
      </trkpt>
      <trkpt lat="46.26025" lon="6.84209">
        <ele>1245</ele>
        <time>2018-03-10T17:52:09.0000000Z</time>
      </trkpt>
      <trkpt lat="46.26137" lon="6.84202">
        <ele>1273</ele>
        <time>2018-03-10T17:54:11.0000000Z</time>
      </trkpt>
      <trkpt lat="46.26242" lon="6.8421">
        <ele>1259</ele>
        <time>2018-03-10T17:56:06.0000000Z</time>
      </trkpt>
      <trkpt lat="46.26357" lon="6.84253">
        <ele>1247</ele>
        <time>2018-03-10T17:58:07.0000000Z</time>
      </trkpt>
      <trkpt lat="46.26434" lon="6.84283">
        <ele>1246</ele>
        <time>2018-03-10T18:00:07.0000000Z</time>
      </trkpt>
      <trkpt lat="46.26485" lon="6.8432">
        <ele>1255</ele>
        <time>2018-03-10T18:02:06.0000000Z</time>
      </trkpt>
      <trkpt lat="46.26543" lon="6.84339">
        <ele>1268</ele>
        <time>2018-03-10T18:03:57.0000000Z</time>
      </trkpt>
      <trkpt lat="46.26545" lon="6.84339">
        <ele>1267</ele>
        <time>2018-03-10T18:04:00.0000000Z</time>
      </trkpt>
      <trkpt lat="46.2655" lon="6.84341">
        <ele>1264</ele>
        <time>2018-03-10T18:04:07.0000000Z</time>
      </trkpt>
      <trkpt lat="46.26655" lon="6.8435">
        <ele>1255</ele>
        <time>2018-03-10T18:05:59.0000000Z</time>
      </trkpt>
      <trkpt lat="46.26657" lon="6.84351">
        <ele>1252</ele>
        <time>2018-03-10T18:06:02.0000000Z</time>
      </trkpt>
      <trkpt lat="46.26659" lon="6.84349">
        <ele>1253</ele>
        <time>2018-03-10T18:06:06.0000000Z</time>
      </trkpt>
      <trkpt lat="46.26672" lon="6.84359">
        <ele>1239</ele>
        <time>2018-03-10T18:08:07.0000000Z</time>
      </trkpt>
      <trkpt lat="46.26694" lon="6.84294">
        <ele>1222</ele>
        <time>2018-03-10T18:10:05.0000000Z</time>
      </trkpt>
      <trkpt lat="46.26711" lon="6.84248">
        <ele>1202</ele>
        <time>2018-03-10T18:11:51.0000000Z</time>
      </trkpt>
      <trkpt lat="46.26712" lon="6.84251">
        <ele>1198</ele>
        <time>2018-03-10T18:11:54.0000000Z</time>
      </trkpt>
      <trkpt lat="46.26712" lon="6.84249">
        <ele>1193</ele>
        <time>2018-03-10T18:11:57.0000000Z</time>
      </trkpt>
      <trkpt lat="46.26712" lon="6.84247">
        <ele>1189</ele>
        <time>2018-03-10T18:12:00.0000000Z</time>
      </trkpt>
      <trkpt lat="46.26714" lon="6.84247">
        <ele>1187</ele>
        <time>2018-03-10T18:12:03.0000000Z</time>
      </trkpt>
      <trkpt lat="46.26709" lon="6.8424">
        <ele>1196</ele>
        <time>2018-03-10T18:12:06.0000000Z</time>
      </trkpt>
      <trkpt lat="46.26727" lon="6.84124">
        <ele>1201</ele>
        <time>2018-03-10T18:14:09.0000000Z</time>
      </trkpt>
      <trkpt lat="46.26811" lon="6.84029">
        <ele>1187</ele>
        <time>2018-03-10T18:16:07.0000000Z</time>
      </trkpt>
      <trkpt lat="46.26808" lon="6.84039">
        <ele>1201</ele>
        <time>2018-03-10T19:03:39.0000000Z</time>
      </trkpt>
      <trkpt lat="46.26807" lon="6.84037">
        <ele>1213</ele>
        <time>2018-03-10T19:03:43.0000000Z</time>
      </trkpt>
      <trkpt lat="46.26806" lon="6.84039">
        <ele>1219</ele>
        <time>2018-03-10T19:03:46.0000000Z</time>
      </trkpt>
      <trkpt lat="46.26804" lon="6.84041">
        <ele>1219</ele>
        <time>2018-03-10T19:03:49.0000000Z</time>
      </trkpt>
      <trkpt lat="46.26799" lon="6.84047">
        <ele>1217</ele>
        <time>2018-03-10T19:03:56.0000000Z</time>
      </trkpt>
      <trkpt lat="46.26759" lon="6.84114">
        <ele>1183</ele>
        <time>2018-03-10T19:05:53.0000000Z</time>
      </trkpt>
      <trkpt lat="46.26761" lon="6.84117">
        <ele>1171</ele>
        <time>2018-03-10T19:05:56.0000000Z</time>
      </trkpt>
      <trkpt lat="46.2676" lon="6.84124">
        <ele>1206</ele>
        <time>2018-03-10T19:06:05.0000000Z</time>
      </trkpt>
      <trkpt lat="46.26753" lon="6.84122">
        <ele>1203</ele>
        <time>2018-03-10T19:06:11.0000000Z</time>
      </trkpt>
      <trkpt lat="46.26751" lon="6.84122">
        <ele>1205</ele>
        <time>2018-03-10T19:06:14.0000000Z</time>
      </trkpt>
      <trkpt lat="46.26747" lon="6.84122">
        <ele>1203</ele>
        <time>2018-03-10T19:06:18.0000000Z</time>
      </trkpt>
      <trkpt lat="46.26744" lon="6.84122">
        <ele>1206</ele>
        <time>2018-03-10T19:06:21.0000000Z</time>
      </trkpt>
      <trkpt lat="46.26742" lon="6.84123">
        <ele>1208</ele>
        <time>2018-03-10T19:06:24.0000000Z</time>
      </trkpt>
      <trkpt lat="46.2674" lon="6.84123">
        <ele>1210</ele>
        <time>2018-03-10T19:06:27.0000000Z</time>
      </trkpt>
      <trkpt lat="46.26737" lon="6.84123">
        <ele>1212</ele>
        <time>2018-03-10T19:06:30.0000000Z</time>
      </trkpt>
      <trkpt lat="46.26722" lon="6.84171">
        <ele>1229</ele>
        <time>2018-03-10T19:08:08.0000000Z</time>
      </trkpt>
      <trkpt lat="46.26707" lon="6.84204">
        <ele>1245</ele>
        <time>2018-03-10T19:09:57.0000000Z</time>
      </trkpt>
      <trkpt lat="46.26709" lon="6.84198">
        <ele>1246</ele>
        <time>2018-03-10T19:10:00.0000000Z</time>
      </trkpt>
      <trkpt lat="46.26708" lon="6.84195">
        <ele>1249</ele>
        <time>2018-03-10T19:10:02.0000000Z</time>
      </trkpt>
      <trkpt lat="46.26705" lon="6.84243">
        <ele>1230</ele>
        <time>2018-03-10T19:10:46.0000000Z</time>
      </trkpt>
      <trkpt lat="46.26702" lon="6.84247">
        <ele>1216</ele>
        <time>2018-03-10T19:12:07.0000000Z</time>
      </trkpt>
      <trkpt lat="46.26714" lon="6.84266">
        <ele>1231</ele>
        <time>2018-03-10T19:14:10.0000000Z</time>
      </trkpt>
      <trkpt lat="46.26743" lon="6.84312">
        <ele>1247</ele>
        <time>2018-03-10T19:16:06.0000000Z</time>
      </trkpt>
      <trkpt lat="46.26696" lon="6.8437">
        <ele>1246</ele>
        <time>2018-03-10T19:18:06.0000000Z</time>
      </trkpt>
      <trkpt lat="46.26698" lon="6.84387">
        <ele>1270</ele>
        <time>2018-03-10T19:20:05.0000000Z</time>
      </trkpt>
      <trkpt lat="46.2675" lon="6.84403">
        <ele>1266</ele>
        <time>2018-03-10T19:22:06.0000000Z</time>
      </trkpt>
      <trkpt lat="46.26775" lon="6.84424">
        <ele>1294</ele>
        <time>2018-03-10T19:24:07.0000000Z</time>
      </trkpt>
      <trkpt lat="46.26823" lon="6.84455">
        <ele>1311</ele>
        <time>2018-03-10T19:26:05.0000000Z</time>
      </trkpt>
      <trkpt lat="46.26834" lon="6.84497">
        <ele>1315</ele>
        <time>2018-03-10T19:28:07.0000000Z</time>
      </trkpt>
      <trkpt lat="46.26819" lon="6.84494">
        <ele>1301</ele>
        <time>2018-03-10T19:30:05.0000000Z</time>
      </trkpt>
      <trkpt lat="46.2682" lon="6.84497">
        <ele>1332</ele>
        <time>2018-03-10T19:32:03.0000000Z</time>
      </trkpt>
      <trkpt lat="46.26818" lon="6.84496">
        <ele>1335</ele>
        <time>2018-03-10T19:32:06.0000000Z</time>
      </trkpt>
      <trkpt lat="46.26777" lon="6.84551">
        <ele>1340</ele>
        <time>2018-03-10T19:34:06.0000000Z</time>
      </trkpt>
      <trkpt lat="46.26777" lon="6.84553">
        <ele>1338</ele>
        <time>2018-03-10T19:34:09.0000000Z</time>
      </trkpt>
      <trkpt lat="46.26818" lon="6.84567">
        <ele>1354</ele>
        <time>2018-03-10T19:36:14.0000000Z</time>
      </trkpt>
      <trkpt lat="46.26861" lon="6.84593">
        <ele>1378</ele>
        <time>2018-03-10T19:38:28.0000000Z</time>
      </trkpt>
      <trkpt lat="46.26903" lon="6.84613">
        <ele>1374</ele>
        <time>2018-03-10T19:40:12.0000000Z</time>
      </trkpt>
      <trkpt lat="46.26894" lon="6.84641">
        <ele>1396</ele>
        <time>2018-03-10T19:42:11.0000000Z</time>
      </trkpt>
      <trkpt lat="46.26863" lon="6.84658">
        <ele>1412</ele>
        <time>2018-03-10T19:43:57.0000000Z</time>
      </trkpt>
      <trkpt lat="46.26856" lon="6.84663">
        <ele>1406</ele>
        <time>2018-03-10T19:44:11.0000000Z</time>
      </trkpt>
      <trkpt lat="46.26876" lon="6.84662">
        <ele>1410</ele>
        <time>2018-03-10T19:46:05.0000000Z</time>
      </trkpt>
      <trkpt lat="46.26876" lon="6.84663">
        <ele>1413</ele>
        <time>2018-03-10T19:46:11.0000000Z</time>
      </trkpt>
      <trkpt lat="46.26887" lon="6.84695">
        <ele>1413</ele>
        <time>2018-03-10T19:48:08.0000000Z</time>
      </trkpt>
      <trkpt lat="46.26888" lon="6.84694">
        <ele>1412</ele>
        <time>2018-03-10T19:48:11.0000000Z</time>
      </trkpt>
      <trkpt lat="46.26894" lon="6.84694">
        <ele>1407</ele>
        <time>2018-03-10T19:50:05.0000000Z</time>
      </trkpt>
      <trkpt lat="46.2694" lon="6.84766">
        <ele>1501</ele>
        <time>2018-03-10T19:51:57.0000000Z</time>
      </trkpt>
      <trkpt lat="46.26916" lon="6.84757">
        <ele>1462</ele>
        <time>2018-03-10T19:52:06.0000000Z</time>
      </trkpt>
      <trkpt lat="46.26888" lon="6.84778">
        <ele>1429</ele>
        <time>2018-03-10T19:54:06.0000000Z</time>
      </trkpt>
      <trkpt lat="46.26844" lon="6.84798">
        <ele>1427</ele>
        <time>2018-03-10T19:55:54.0000000Z</time>
      </trkpt>
      <trkpt lat="46.26844" lon="6.84799">
        <ele>1429</ele>
        <time>2018-03-10T19:55:57.0000000Z</time>
      </trkpt>
      <trkpt lat="46.26844" lon="6.84801">
        <ele>1432</ele>
        <time>2018-03-10T19:56:00.0000000Z</time>
      </trkpt>
      <trkpt lat="46.26846" lon="6.84803">
        <ele>1435</ele>
        <time>2018-03-10T19:56:04.0000000Z</time>
      </trkpt>
      <trkpt lat="46.26807" lon="6.84854">
        <ele>1464</ele>
        <time>2018-03-10T19:58:08.0000000Z</time>
      </trkpt>
      <trkpt lat="46.26829" lon="6.849">
        <ele>1454</ele>
        <time>2018-03-10T20:00:06.0000000Z</time>
      </trkpt>
      <trkpt lat="46.2684" lon="6.84901">
        <ele>1464</ele>
        <time>2018-03-10T20:02:06.0000000Z</time>
      </trkpt>
      <trkpt lat="46.26812" lon="6.84901">
        <ele>1461</ele>
        <time>2018-03-10T20:03:59.0000000Z</time>
      </trkpt>
      <trkpt lat="46.2681" lon="6.84901">
        <ele>1461</ele>
        <time>2018-03-10T20:04:02.0000000Z</time>
      </trkpt>
      <trkpt lat="46.2681" lon="6.84902">
        <ele>1462</ele>
        <time>2018-03-10T20:04:05.0000000Z</time>
      </trkpt>
      <trkpt lat="46.26762" lon="6.84911">
        <ele>1462</ele>
        <time>2018-03-10T20:06:04.0000000Z</time>
      </trkpt>
      <trkpt lat="46.26748" lon="6.84881">
        <ele>1476</ele>
        <time>2018-03-10T20:08:05.0000000Z</time>
      </trkpt>
      <trkpt lat="46.26731" lon="6.84828">
        <ele>1482</ele>
        <time>2018-03-10T20:10:04.0000000Z</time>
      </trkpt>
      <trkpt lat="46.26685" lon="6.84837">
        <ele>1492</ele>
        <time>2018-03-10T20:11:55.0000000Z</time>
      </trkpt>
      <trkpt lat="46.26684" lon="6.84837">
        <ele>1493</ele>
        <time>2018-03-10T20:11:58.0000000Z</time>
      </trkpt>
      <trkpt lat="46.26682" lon="6.84838">
        <ele>1495</ele>
        <time>2018-03-10T20:12:04.0000000Z</time>
      </trkpt>
      <trkpt lat="46.26672" lon="6.84856">
        <ele>1503</ele>
        <time>2018-03-10T20:14:06.0000000Z</time>
      </trkpt>
      <trkpt lat="46.26667" lon="6.84869">
        <ele>1506</ele>
        <time>2018-03-10T20:16:04.0000000Z</time>
      </trkpt>
      <trkpt lat="46.267" lon="6.84897">
        <ele>1507</ele>
        <time>2018-03-10T20:18:04.0000000Z</time>
      </trkpt>
      <trkpt lat="46.26703" lon="6.84964">
        <ele>1511</ele>
        <time>2018-03-10T20:20:04.0000000Z</time>
      </trkpt>
      <trkpt lat="46.26709" lon="6.85024">
        <ele>1517</ele>
        <time>2018-03-10T20:22:04.0000000Z</time>
      </trkpt>
      <trkpt lat="46.26687" lon="6.85076">
        <ele>1520</ele>
        <time>2018-03-10T20:24:05.0000000Z</time>
      </trkpt>
      <trkpt lat="46.26677" lon="6.8508">
        <ele>1535</ele>
        <time>2018-03-10T20:26:03.0000000Z</time>
      </trkpt>
      <trkpt lat="46.26674" lon="6.85113">
        <ele>1525</ele>
        <time>2018-03-10T20:28:04.0000000Z</time>
      </trkpt>
      <trkpt lat="46.26679" lon="6.85196">
        <ele>1528</ele>
        <time>2018-03-10T20:30:04.0000000Z</time>
      </trkpt>
      <trkpt lat="46.26672" lon="6.8529">
        <ele>1534</ele>
        <time>2018-03-10T20:32:01.0000000Z</time>
      </trkpt>
      <trkpt lat="46.26672" lon="6.85292">
        <ele>1534</ele>
        <time>2018-03-10T20:32:04.0000000Z</time>
      </trkpt>
      <trkpt lat="46.26657" lon="6.85365">
        <ele>1546</ele>
        <time>2018-03-10T20:34:04.0000000Z</time>
      </trkpt>
      <trkpt lat="46.26645" lon="6.85418">
        <ele>1561</ele>
        <time>2018-03-10T20:36:04.0000000Z</time>
      </trkpt>
      <trkpt lat="46.26642" lon="6.85465">
        <ele>1577</ele>
        <time>2018-03-10T20:38:04.0000000Z</time>
      </trkpt>
      <trkpt lat="46.26638" lon="6.85495">
        <ele>1578</ele>
        <time>2018-03-10T20:40:04.0000000Z</time>
      </trkpt>
      <trkpt lat="46.26632" lon="6.85547">
        <ele>1589</ele>
        <time>2018-03-10T20:42:05.0000000Z</time>
      </trkpt>
      <trkpt lat="46.26594" lon="6.85614">
        <ele>1596</ele>
        <time>2018-03-10T20:44:03.0000000Z</time>
      </trkpt>
      <trkpt lat="46.26594" lon="6.85614">
        <ele>1597</ele>
        <time>2018-03-10T20:44:06.0000000Z</time>
      </trkpt>
      <trkpt lat="46.26574" lon="6.8568">
        <ele>1602</ele>
        <time>2018-03-10T20:45:52.0000000Z</time>
      </trkpt>
      <trkpt lat="46.26572" lon="6.8569">
        <ele>1605</ele>
        <time>2018-03-10T20:46:04.0000000Z</time>
      </trkpt>
      <trkpt lat="46.26569" lon="6.85711">
        <ele>1601</ele>
        <time>2018-03-10T20:48:04.0000000Z</time>
      </trkpt>
      <trkpt lat="46.26561" lon="6.85754">
        <ele>1606</ele>
        <time>2018-03-10T20:50:04.0000000Z</time>
      </trkpt>
      <trkpt lat="46.26554" lon="6.85798">
        <ele>1619</ele>
        <time>2018-03-10T20:52:04.0000000Z</time>
      </trkpt>
      <trkpt lat="46.26558" lon="6.85856">
        <ele>1637</ele>
        <time>2018-03-10T20:54:06.0000000Z</time>
      </trkpt>
      <trkpt lat="46.26564" lon="6.85911">
        <ele>1644</ele>
        <time>2018-03-10T20:56:05.0000000Z</time>
      </trkpt>
      <trkpt lat="46.2656" lon="6.85956">
        <ele>1650</ele>
        <time>2018-03-10T20:58:01.0000000Z</time>
      </trkpt>
      <trkpt lat="46.26561" lon="6.85958">
        <ele>1650</ele>
        <time>2018-03-10T20:58:04.0000000Z</time>
      </trkpt>
      <trkpt lat="46.26566" lon="6.85965">
        <ele>1654</ele>
        <time>2018-03-10T21:00:04.0000000Z</time>
      </trkpt>
      <trkpt lat="46.26597" lon="6.86018">
        <ele>1657</ele>
        <time>2018-03-10T21:02:03.0000000Z</time>
      </trkpt>
      <trkpt lat="46.26644" lon="6.86064">
        <ele>1659</ele>
        <time>2018-03-10T21:04:04.0000000Z</time>
      </trkpt>
      <trkpt lat="46.26664" lon="6.86124">
        <ele>1679</ele>
        <time>2018-03-10T21:05:55.0000000Z</time>
      </trkpt>
      <trkpt lat="46.26666" lon="6.8613">
        <ele>1680</ele>
        <time>2018-03-10T21:06:04.0000000Z</time>
      </trkpt>
      <trkpt lat="46.26669" lon="6.86184">
        <ele>1679</ele>
        <time>2018-03-10T21:08:03.0000000Z</time>
      </trkpt>
      <trkpt lat="46.26634" lon="6.86226">
        <ele>1699</ele>
        <time>2018-03-10T21:10:05.0000000Z</time>
      </trkpt>
      <trkpt lat="46.26627" lon="6.86232">
        <ele>1695</ele>
        <time>2018-03-10T21:12:04.0000000Z</time>
      </trkpt>
      <trkpt lat="46.26619" lon="6.86241">
        <ele>1692</ele>
        <time>2018-03-10T21:14:05.0000000Z</time>
      </trkpt>
      <trkpt lat="46.26573" lon="6.86316">
        <ele>1688</ele>
        <time>2018-03-10T21:16:04.0000000Z</time>
      </trkpt>
      <trkpt lat="46.26544" lon="6.8641">
        <ele>1688</ele>
        <time>2018-03-10T21:18:04.0000000Z</time>
      </trkpt>
      <trkpt lat="46.26544" lon="6.86499">
        <ele>1687</ele>
        <time>2018-03-10T21:20:02.0000000Z</time>
      </trkpt>
      <trkpt lat="46.26544" lon="6.86502">
        <ele>1686</ele>
        <time>2018-03-10T21:20:05.0000000Z</time>
      </trkpt>
      <trkpt lat="46.26556" lon="6.86565">
        <ele>1685</ele>
        <time>2018-03-10T21:22:04.0000000Z</time>
      </trkpt>
      <trkpt lat="46.2656" lon="6.86613">
        <ele>1683</ele>
        <time>2018-03-10T21:23:59.0000000Z</time>
      </trkpt>
      <trkpt lat="46.26557" lon="6.86617">
        <ele>1686</ele>
        <time>2018-03-10T21:24:04.0000000Z</time>
      </trkpt>
      <trkpt lat="46.26527" lon="6.86742">
        <ele>1681</ele>
        <time>2018-03-10T21:26:03.0000000Z</time>
      </trkpt>
      <trkpt lat="46.26471" lon="6.86805">
        <ele>1682</ele>
        <time>2018-03-10T21:28:05.0000000Z</time>
      </trkpt>
      <trkpt lat="46.26409" lon="6.86853">
        <ele>1676</ele>
        <time>2018-03-10T21:30:05.0000000Z</time>
      </trkpt>
      <trkpt lat="46.26354" lon="6.86917">
        <ele>1676</ele>
        <time>2018-03-10T21:32:05.0000000Z</time>
      </trkpt>
      <trkpt lat="46.2633" lon="6.87022">
        <ele>1680</ele>
        <time>2018-03-10T21:34:04.0000000Z</time>
      </trkpt>
      <trkpt lat="46.26324" lon="6.87078">
        <ele>1684</ele>
        <time>2018-03-10T21:36:03.0000000Z</time>
      </trkpt>
      <trkpt lat="46.263" lon="6.87133">
        <ele>1697</ele>
        <time>2018-03-10T21:38:04.0000000Z</time>
      </trkpt>
      <trkpt lat="46.26253" lon="6.87138">
        <ele>1704</ele>
        <time>2018-03-10T21:40:04.0000000Z</time>
      </trkpt>
      <trkpt lat="46.26198" lon="6.87122">
        <ele>1711</ele>
        <time>2018-03-10T21:42:03.0000000Z</time>
      </trkpt>
      <trkpt lat="46.26161" lon="6.87131">
        <ele>1719</ele>
        <time>2018-03-10T21:44:01.0000000Z</time>
      </trkpt>
      <trkpt lat="46.26159" lon="6.87132">
        <ele>1720</ele>
        <time>2018-03-10T21:44:05.0000000Z</time>
      </trkpt>
      <trkpt lat="46.26116" lon="6.87156">
        <ele>1734</ele>
        <time>2018-03-10T21:46:03.0000000Z</time>
      </trkpt>
      <trkpt lat="46.26075" lon="6.87175">
        <ele>1744</ele>
        <time>2018-03-10T21:48:04.0000000Z</time>
      </trkpt>
      <trkpt lat="46.26048" lon="6.8718">
        <ele>1746</ele>
        <time>2018-03-10T21:50:05.0000000Z</time>
      </trkpt>
      <trkpt lat="46.25998" lon="6.87169">
        <ele>1756</ele>
        <time>2018-03-10T21:52:05.0000000Z</time>
      </trkpt>
      <trkpt lat="46.25964" lon="6.87156">
        <ele>1767</ele>
        <time>2018-03-10T21:54:04.0000000Z</time>
      </trkpt>
      <trkpt lat="46.25901" lon="6.87162">
        <ele>1774</ele>
        <time>2018-03-10T21:56:05.0000000Z</time>
      </trkpt>
      <trkpt lat="46.25863" lon="6.87226">
        <ele>1782</ele>
        <time>2018-03-10T21:58:03.0000000Z</time>
      </trkpt>
      <trkpt lat="46.25722" lon="6.87304">
        <ele>1765</ele>
        <time>2018-03-10T22:03:56.0000000Z</time>
      </trkpt>
      <trkpt lat="46.25718" lon="6.87305">
        <ele>1764</ele>
        <time>2018-03-10T22:04:05.0000000Z</time>
      </trkpt>
      <trkpt lat="46.25703" lon="6.87307">
        <ele>1764</ele>
        <time>2018-03-10T22:06:05.0000000Z</time>
      </trkpt>
      <trkpt lat="46.25627" lon="6.87299">
        <ele>1753</ele>
        <time>2018-03-10T22:08:04.0000000Z</time>
      </trkpt>
      <trkpt lat="46.25548" lon="6.87298">
        <ele>1746</ele>
        <time>2018-03-10T22:10:05.0000000Z</time>
      </trkpt>
      <trkpt lat="46.2548" lon="6.87296">
        <ele>1742</ele>
        <time>2018-03-10T22:12:05.0000000Z</time>
      </trkpt>
      <trkpt lat="46.25404" lon="6.87316">
        <ele>1739</ele>
        <time>2018-03-10T22:14:05.0000000Z</time>
      </trkpt>
      <trkpt lat="46.25326" lon="6.87312">
        <ele>1741</ele>
        <time>2018-03-10T22:15:58.0000000Z</time>
      </trkpt>
      <trkpt lat="46.25321" lon="6.87311">
        <ele>1740</ele>
        <time>2018-03-10T22:16:04.0000000Z</time>
      </trkpt>
      <trkpt lat="46.25242" lon="6.87325">
        <ele>1732</ele>
        <time>2018-03-10T22:18:04.0000000Z</time>
      </trkpt>
      <trkpt lat="46.25161" lon="6.87323">
        <ele>1722</ele>
        <time>2018-03-10T22:19:54.0000000Z</time>
      </trkpt>
      <trkpt lat="46.25156" lon="6.87325">
        <ele>1719</ele>
        <time>2018-03-10T22:20:05.0000000Z</time>
      </trkpt>
      <trkpt lat="46.25133" lon="6.87289">
        <ele>1707</ele>
        <time>2018-03-10T22:22:05.0000000Z</time>
      </trkpt>
      <trkpt lat="46.25111" lon="6.87208">
        <ele>1694</ele>
        <time>2018-03-10T22:24:04.0000000Z</time>
      </trkpt>
      <trkpt lat="46.25111" lon="6.87114">
        <ele>1672</ele>
        <time>2018-03-10T22:26:05.0000000Z</time>
      </trkpt>
      <trkpt lat="46.25071" lon="6.87091">
        <ele>1676</ele>
        <time>2018-03-10T22:27:55.0000000Z</time>
      </trkpt>
      <trkpt lat="46.25063" lon="6.87089">
        <ele>1674</ele>
        <time>2018-03-10T22:28:05.0000000Z</time>
      </trkpt>
      <trkpt lat="46.24987" lon="6.87088">
        <ele>1660</ele>
        <time>2018-03-10T22:30:05.0000000Z</time>
      </trkpt>
      <trkpt lat="46.24916" lon="6.87105">
        <ele>1632</ele>
        <time>2018-03-10T22:32:05.0000000Z</time>
      </trkpt>
      <trkpt lat="46.24888" lon="6.87109">
        <ele>1623</ele>
        <time>2018-03-10T22:34:01.0000000Z</time>
      </trkpt>
      <trkpt lat="46.24888" lon="6.8711">
        <ele>1625</ele>
        <time>2018-03-10T22:34:06.0000000Z</time>
      </trkpt>
      <trkpt lat="46.24862" lon="6.87135">
        <ele>1619</ele>
        <time>2018-03-10T22:36:06.0000000Z</time>
      </trkpt>
      <trkpt lat="46.24822" lon="6.8717">
        <ele>1597</ele>
        <time>2018-03-10T22:38:04.0000000Z</time>
      </trkpt>
      <trkpt lat="46.24778" lon="6.87157">
        <ele>1590</ele>
        <time>2018-03-10T22:39:57.0000000Z</time>
      </trkpt>
      <trkpt lat="46.24775" lon="6.87157">
        <ele>1590</ele>
        <time>2018-03-10T22:40:00.0000000Z</time>
      </trkpt>
      <trkpt lat="46.24773" lon="6.87159">
        <ele>1591</ele>
        <time>2018-03-10T22:40:04.0000000Z</time>
      </trkpt>
      <trkpt lat="46.24695" lon="6.87164">
        <ele>1591</ele>
        <time>2018-03-10T22:42:07.0000000Z</time>
      </trkpt>
      <trkpt lat="46.24608" lon="6.87166">
        <ele>1590</ele>
        <time>2018-03-10T22:44:04.0000000Z</time>
      </trkpt>
      <trkpt lat="46.24554" lon="6.87083">
        <ele>1586</ele>
        <time>2018-03-10T22:46:03.0000000Z</time>
      </trkpt>
      <trkpt lat="46.24529" lon="6.86957">
        <ele>1582</ele>
        <time>2018-03-10T22:48:03.0000000Z</time>
      </trkpt>
      <trkpt lat="46.24471" lon="6.86837">
        <ele>1569</ele>
        <time>2018-03-10T22:50:04.0000000Z</time>
      </trkpt>
      <trkpt lat="46.24422" lon="6.86712">
        <ele>1549</ele>
        <time>2018-03-10T22:52:04.0000000Z</time>
      </trkpt>
      <trkpt lat="46.24371" lon="6.86612">
        <ele>1531</ele>
        <time>2018-03-10T22:54:00.0000000Z</time>
      </trkpt>
      <trkpt lat="46.24369" lon="6.8661">
        <ele>1531</ele>
        <time>2018-03-10T22:54:04.0000000Z</time>
      </trkpt>
      <trkpt lat="46.24304" lon="6.86538">
        <ele>1510</ele>
        <time>2018-03-10T22:56:04.0000000Z</time>
      </trkpt>
      <trkpt lat="46.2425" lon="6.86439">
        <ele>1489</ele>
        <time>2018-03-10T22:58:03.0000000Z</time>
      </trkpt>
      <trkpt lat="46.24217" lon="6.86375">
        <ele>1481</ele>
        <time>2018-03-10T22:59:56.0000000Z</time>
      </trkpt>
      <trkpt lat="46.24215" lon="6.86369">
        <ele>1478</ele>
        <time>2018-03-10T23:00:04.0000000Z</time>
      </trkpt>
      <trkpt lat="46.24187" lon="6.86323">
        <ele>1465</ele>
        <time>2018-03-10T23:02:04.0000000Z</time>
      </trkpt>
      <trkpt lat="46.24129" lon="6.86214">
        <ele>1447</ele>
        <time>2018-03-10T23:04:04.0000000Z</time>
      </trkpt>
      <trkpt lat="46.24091" lon="6.86119">
        <ele>1433</ele>
        <time>2018-03-10T23:06:04.0000000Z</time>
      </trkpt>
      <trkpt lat="46.24094" lon="6.85981">
        <ele>1416</ele>
        <time>2018-03-10T23:08:03.0000000Z</time>
      </trkpt>
      <trkpt lat="46.24096" lon="6.85979">
        <ele>1415</ele>
        <time>2018-03-10T23:08:06.0000000Z</time>
      </trkpt>
      <trkpt lat="46.24076" lon="6.85838">
        <ele>1410</ele>
        <time>2018-03-10T23:10:05.0000000Z</time>
      </trkpt>
      <trkpt lat="46.24089" lon="6.85719">
        <ele>1386</ele>
        <time>2018-03-10T23:12:02.0000000Z</time>
      </trkpt>
      <trkpt lat="46.24067" lon="6.85625">
        <ele>1372</ele>
        <time>2018-03-10T23:14:05.0000000Z</time>
      </trkpt>
      <trkpt lat="46.24018" lon="6.85544">
        <ele>1352</ele>
        <time>2018-03-10T23:16:05.0000000Z</time>
      </trkpt>
      <trkpt lat="46.23959" lon="6.85474">
        <ele>1333</ele>
        <time>2018-03-10T23:18:05.0000000Z</time>
      </trkpt>
      <trkpt lat="46.23874" lon="6.85491">
        <ele>1326</ele>
        <time>2018-03-10T23:20:05.0000000Z</time>
      </trkpt>
      <trkpt lat="46.23822" lon="6.85552">
        <ele>1321</ele>
        <time>2018-03-10T23:22:05.0000000Z</time>
      </trkpt>
      <trkpt lat="46.23814" lon="6.85443">
        <ele>1321</ele>
        <time>2018-03-10T23:24:05.0000000Z</time>
      </trkpt>
      <trkpt lat="46.23772" lon="6.85427">
        <ele>1335</ele>
        <time>2018-03-11T01:18:22.0000000Z</time>
      </trkpt>
      <trkpt lat="46.23772" lon="6.85432">
        <ele>1340</ele>
        <time>2018-03-11T01:18:25.0000000Z</time>
      </trkpt>
      <trkpt lat="46.23712" lon="6.85517">
        <ele>1322</ele>
        <time>2018-03-11T01:20:07.0000000Z</time>
      </trkpt>
      <trkpt lat="46.2363" lon="6.85569">
        <ele>1323</ele>
        <time>2018-03-11T01:22:15.0000000Z</time>
      </trkpt>
      <trkpt lat="46.2362" lon="6.85447">
        <ele>1326</ele>
        <time>2018-03-11T01:24:06.0000000Z</time>
      </trkpt>
      <trkpt lat="46.23563" lon="6.85278">
        <ele>1329</ele>
        <time>2018-03-11T01:26:01.0000000Z</time>
      </trkpt>
      <trkpt lat="46.23563" lon="6.85275">
        <ele>1329</ele>
        <time>2018-03-11T01:26:04.0000000Z</time>
      </trkpt>
      <trkpt lat="46.23517" lon="6.85162">
        <ele>1335</ele>
        <time>2018-03-11T01:27:52.0000000Z</time>
      </trkpt>
      <trkpt lat="46.23516" lon="6.85158">
        <ele>1337</ele>
        <time>2018-03-11T01:27:55.0000000Z</time>
      </trkpt>
      <trkpt lat="46.23512" lon="6.85149">
        <ele>1340</ele>
        <time>2018-03-11T01:28:06.0000000Z</time>
      </trkpt>
      <trkpt lat="46.23448" lon="6.84981">
        <ele>1346</ele>
        <time>2018-03-11T01:30:07.0000000Z</time>
      </trkpt>
      <trkpt lat="46.23389" lon="6.84843">
        <ele>1351</ele>
        <time>2018-03-11T01:31:59.0000000Z</time>
      </trkpt>
      <trkpt lat="46.23388" lon="6.84837">
        <ele>1351</ele>
        <time>2018-03-11T01:32:04.0000000Z</time>
      </trkpt>
      <trkpt lat="46.23386" lon="6.84836">
        <ele>1352</ele>
        <time>2018-03-11T01:32:07.0000000Z</time>
      </trkpt>
      <trkpt lat="46.23318" lon="6.847">
        <ele>1363</ele>
        <time>2018-03-11T01:34:06.0000000Z</time>
      </trkpt>
      <trkpt lat="46.2325" lon="6.84562">
        <ele>1376</ele>
        <time>2018-03-11T01:36:01.0000000Z</time>
      </trkpt>
      <trkpt lat="46.23254" lon="6.84548">
        <ele>1368</ele>
        <time>2018-03-11T01:36:07.0000000Z</time>
      </trkpt>
      <trkpt lat="46.23154" lon="6.84419">
        <ele>1368</ele>
        <time>2018-03-11T01:38:06.0000000Z</time>
      </trkpt>
      <trkpt lat="46.2305" lon="6.84338">
        <ele>1385</ele>
        <time>2018-03-11T01:40:00.0000000Z</time>
      </trkpt>
      <trkpt lat="46.2305" lon="6.84337">
        <ele>1383</ele>
        <time>2018-03-11T01:40:03.0000000Z</time>
      </trkpt>
      <trkpt lat="46.23049" lon="6.84334">
        <ele>1384</ele>
        <time>2018-03-11T01:40:06.0000000Z</time>
      </trkpt>
      <trkpt lat="46.22976" lon="6.84191">
        <ele>1381</ele>
        <time>2018-03-11T01:42:08.0000000Z</time>
      </trkpt>
      <trkpt lat="46.22952" lon="6.84074">
        <ele>1398</ele>
        <time>2018-03-11T01:44:08.0000000Z</time>
      </trkpt>
      <trkpt lat="46.23026" lon="6.8421">
        <ele>1384</ele>
        <time>2018-03-11T01:46:07.0000000Z</time>
      </trkpt>
      <trkpt lat="46.23027" lon="6.84213">
        <ele>1385</ele>
        <time>2018-03-11T01:46:10.0000000Z</time>
      </trkpt>
      <trkpt lat="46.23124" lon="6.84333">
        <ele>1413</ele>
        <time>2018-03-11T01:48:08.0000000Z</time>
      </trkpt>
      <trkpt lat="46.23256" lon="6.84415">
        <ele>1385</ele>
        <time>2018-03-11T01:50:07.0000000Z</time>
      </trkpt>
      <trkpt lat="46.23388" lon="6.84513">
        <ele>1372</ele>
        <time>2018-03-11T01:52:09.0000000Z</time>
      </trkpt>
      <trkpt lat="46.23471" lon="6.84659">
        <ele>1374</ele>
        <time>2018-03-11T01:54:06.0000000Z</time>
      </trkpt>
      <trkpt lat="46.23537" lon="6.84814">
        <ele>1381</ele>
        <time>2018-03-11T01:56:07.0000000Z</time>
      </trkpt>
      <trkpt lat="46.23642" lon="6.84902">
        <ele>1379</ele>
        <time>2018-03-11T01:58:08.0000000Z</time>
      </trkpt>
      <trkpt lat="46.23758" lon="6.84911">
        <ele>1374</ele>
        <time>2018-03-11T02:00:06.0000000Z</time>
      </trkpt>
      <trkpt lat="46.23845" lon="6.84915">
        <ele>1403</ele>
        <time>2018-03-11T02:02:06.0000000Z</time>
      </trkpt>
      <trkpt lat="46.23953" lon="6.84954">
        <ele>1405</ele>
        <time>2018-03-11T02:04:06.0000000Z</time>
      </trkpt>
      <trkpt lat="46.24048" lon="6.8499">
        <ele>1419</ele>
        <time>2018-03-11T02:06:00.0000000Z</time>
      </trkpt>
      <trkpt lat="46.24054" lon="6.84989">
        <ele>1414</ele>
        <time>2018-03-11T02:06:03.0000000Z</time>
      </trkpt>
      <trkpt lat="46.24059" lon="6.84987">
        <ele>1413</ele>
        <time>2018-03-11T02:06:06.0000000Z</time>
      </trkpt>
      <trkpt lat="46.24173" lon="6.85071">
        <ele>1395</ele>
        <time>2018-03-11T02:08:06.0000000Z</time>
      </trkpt>
      <trkpt lat="46.24312" lon="6.85017">
        <ele>1373</ele>
        <time>2018-03-11T02:10:06.0000000Z</time>
      </trkpt>
      <trkpt lat="46.2439" lon="6.84983">
        <ele>1371</ele>
        <time>2018-03-11T02:12:07.0000000Z</time>
      </trkpt>
      <trkpt lat="46.24489" lon="6.84986">
        <ele>1368</ele>
        <time>2018-03-11T02:14:05.0000000Z</time>
      </trkpt>
      <trkpt lat="46.24578" lon="6.84959">
        <ele>1374</ele>
        <time>2018-03-11T02:15:54.0000000Z</time>
      </trkpt>
      <trkpt lat="46.24569" lon="6.84962">
        <ele>1376</ele>
        <time>2018-03-11T02:16:07.0000000Z</time>
      </trkpt>
      <trkpt lat="46.24624" lon="6.84982">
        <ele>1373</ele>
        <time>2018-03-11T02:18:02.0000000Z</time>
      </trkpt>
      <trkpt lat="46.24627" lon="6.84981">
        <ele>1373</ele>
        <time>2018-03-11T02:18:05.0000000Z</time>
      </trkpt>
      <trkpt lat="46.24727" lon="6.84871">
        <ele>1378</ele>
        <time>2018-03-11T02:20:05.0000000Z</time>
      </trkpt>
      <trkpt lat="46.24844" lon="6.84775">
        <ele>1370</ele>
        <time>2018-03-11T02:22:06.0000000Z</time>
      </trkpt>
      <trkpt lat="46.2494" lon="6.84659">
        <ele>1380</ele>
        <time>2018-03-11T02:24:06.0000000Z</time>
      </trkpt>
      <trkpt lat="46.25114" lon="6.84481">
        <ele>1338</ele>
        <time>2018-03-11T02:27:59.0000000Z</time>
      </trkpt>
      <trkpt lat="46.25122" lon="6.8448">
        <ele>1336</ele>
        <time>2018-03-11T02:28:06.0000000Z</time>
      </trkpt>
      <trkpt lat="46.25226" lon="6.84388">
        <ele>1333</ele>
        <time>2018-03-11T02:30:11.0000000Z</time>
      </trkpt>
      <trkpt lat="46.25328" lon="6.8431">
        <ele>1300</ele>
        <time>2018-03-11T02:31:57.0000000Z</time>
      </trkpt>
      <trkpt lat="46.25331" lon="6.84308">
        <ele>1301</ele>
        <time>2018-03-11T02:32:00.0000000Z</time>
      </trkpt>
      <trkpt lat="46.25335" lon="6.84302">
        <ele>1300</ele>
        <time>2018-03-11T02:32:06.0000000Z</time>
      </trkpt>
      <trkpt lat="46.25448" lon="6.84211">
        <ele>1312</ele>
        <time>2018-03-11T02:34:09.0000000Z</time>
      </trkpt>
      <trkpt lat="46.25484" lon="6.84158">
        <ele>1267</ele>
        <time>2018-03-11T02:35:55.0000000Z</time>
      </trkpt>
      <trkpt lat="46.25487" lon="6.84155">
        <ele>1269</ele>
        <time>2018-03-11T02:35:58.0000000Z</time>
      </trkpt>
      <trkpt lat="46.25489" lon="6.84155">
        <ele>1270</ele>
        <time>2018-03-11T02:36:02.0000000Z</time>
      </trkpt>
      <trkpt lat="46.2549" lon="6.84154">
        <ele>1271</ele>
        <time>2018-03-11T02:36:05.0000000Z</time>
      </trkpt>
      <trkpt lat="46.25492" lon="6.84152">
        <ele>1271</ele>
        <time>2018-03-11T02:36:08.0000000Z</time>
      </trkpt>
      <trkpt lat="46.25577" lon="6.8405">
        <ele>1260</ele>
        <time>2018-03-11T02:38:06.0000000Z</time>
      </trkpt>
      <trkpt lat="46.25609" lon="6.83913">
        <ele>1265</ele>
        <time>2018-03-11T02:40:07.0000000Z</time>
      </trkpt>
      <trkpt lat="46.25558" lon="6.83772">
        <ele>1271</ele>
        <time>2018-03-11T02:41:58.0000000Z</time>
      </trkpt>
      <trkpt lat="46.25557" lon="6.83768">
        <ele>1274</ele>
        <time>2018-03-11T02:42:02.0000000Z</time>
      </trkpt>
      <trkpt lat="46.25555" lon="6.83765">
        <ele>1274</ele>
        <time>2018-03-11T02:42:05.0000000Z</time>
      </trkpt>
      <trkpt lat="46.25481" lon="6.83592">
        <ele>1257</ele>
        <time>2018-03-11T02:44:04.0000000Z</time>
      </trkpt>
      <trkpt lat="46.25405" lon="6.83422">
        <ele>1259</ele>
        <time>2018-03-11T02:46:06.0000000Z</time>
      </trkpt>
      <trkpt lat="46.25334" lon="6.83284">
        <ele>1264</ele>
        <time>2018-03-11T02:47:58.0000000Z</time>
      </trkpt>
      <trkpt lat="46.25331" lon="6.83275">
        <ele>1267</ele>
        <time>2018-03-11T02:48:05.0000000Z</time>
      </trkpt>
      <trkpt lat="46.25265" lon="6.83125">
        <ele>1264</ele>
        <time>2018-03-11T02:50:04.0000000Z</time>
      </trkpt>
      <trkpt lat="46.25268" lon="6.82932">
        <ele>1255</ele>
        <time>2018-03-11T02:52:04.0000000Z</time>
      </trkpt>
      <trkpt lat="46.25268" lon="6.82927">
        <ele>1257</ele>
        <time>2018-03-11T02:52:07.0000000Z</time>
      </trkpt>
      <trkpt lat="46.25301" lon="6.82721">
        <ele>1231</ele>
        <time>2018-03-11T02:54:04.0000000Z</time>
      </trkpt>
      <trkpt lat="46.25288" lon="6.82496">
        <ele>1206</ele>
        <time>2018-03-11T02:56:05.0000000Z</time>
      </trkpt>
      <trkpt lat="46.25277" lon="6.82399">
        <ele>1181</ele>
        <time>2018-03-11T02:58:06.0000000Z</time>
      </trkpt>
      <trkpt lat="46.25411" lon="6.82408">
        <ele>1144</ele>
        <time>2018-03-11T03:00:04.0000000Z</time>
      </trkpt>
      <trkpt lat="46.25427" lon="6.82255">
        <ele>1123</ele>
        <time>2018-03-11T03:02:05.0000000Z</time>
      </trkpt>
      <trkpt lat="46.25431" lon="6.82095">
        <ele>1114</ele>
        <time>2018-03-11T03:04:05.0000000Z</time>
      </trkpt>
      <trkpt lat="46.25471" lon="6.82123">
        <ele>1120</ele>
        <time>2018-03-11T03:06:00.0000000Z</time>
      </trkpt>
      <trkpt lat="46.2547" lon="6.82122">
        <ele>1120</ele>
        <time>2018-03-11T03:06:05.0000000Z</time>
      </trkpt>
      <trkpt lat="46.25468" lon="6.82128">
        <ele>1127</ele>
        <time>2018-03-11T03:08:05.0000000Z</time>
      </trkpt>
      <trkpt lat="46.25472" lon="6.82132">
        <ele>1131</ele>
        <time>2018-03-11T03:10:05.0000000Z</time>
      </trkpt>
      <trkpt lat="46.25472" lon="6.82125">
        <ele>1124</ele>
        <time>2018-03-11T03:12:05.0000000Z</time>
      </trkpt>
      <trkpt lat="46.2547" lon="6.82121">
        <ele>1126</ele>
        <time>2018-03-11T03:14:05.0000000Z</time>
      </trkpt>
      <trkpt lat="46.25469" lon="6.82126">
        <ele>1126</ele>
        <time>2018-03-11T03:16:05.0000000Z</time>
      </trkpt>
      <trkpt lat="46.25471" lon="6.82128">
        <ele>1127</ele>
        <time>2018-03-11T03:18:05.0000000Z</time>
      </trkpt>
      <trkpt lat="46.25467" lon="6.82124">
        <ele>1135</ele>
        <time>2018-03-11T03:20:02.0000000Z</time>
      </trkpt>
      <trkpt lat="46.25467" lon="6.82123">
        <ele>1134</ele>
        <time>2018-03-11T03:20:05.0000000Z</time>
      </trkpt>
      <trkpt lat="46.25485" lon="6.82118">
        <ele>1121</ele>
        <time>2018-03-11T03:22:05.0000000Z</time>
      </trkpt>
      <trkpt lat="46.25514" lon="6.82302">
        <ele>1125</ele>
        <time>2018-03-11T03:24:06.0000000Z</time>
      </trkpt>
      <trkpt lat="46.25571" lon="6.82492">
        <ele>1137</ele>
        <time>2018-03-11T03:26:07.0000000Z</time>
      </trkpt>
      <trkpt lat="46.25671" lon="6.82574">
        <ele>1109</ele>
        <time>2018-03-11T03:28:04.0000000Z</time>
      </trkpt>
      <trkpt lat="46.25757" lon="6.82509">
        <ele>1132</ele>
        <time>2018-03-11T03:30:05.0000000Z</time>
      </trkpt>
      <trkpt lat="46.25776" lon="6.82488">
        <ele>1138</ele>
        <time>2018-03-11T03:32:05.0000000Z</time>
      </trkpt>
      <trkpt lat="46.25817" lon="6.82473">
        <ele>1171</ele>
        <time>2018-03-11T03:34:06.0000000Z</time>
      </trkpt>
      <trkpt lat="46.2585" lon="6.82581">
        <ele>1173</ele>
        <time>2018-03-11T03:36:02.0000000Z</time>
      </trkpt>
      <trkpt lat="46.25852" lon="6.82586">
        <ele>1173</ele>
        <time>2018-03-11T03:36:05.0000000Z</time>
      </trkpt>
      <trkpt lat="46.25885" lon="6.82781">
        <ele>1159</ele>
        <time>2018-03-11T03:38:03.0000000Z</time>
      </trkpt>
      <trkpt lat="46.25888" lon="6.82785">
        <ele>1158</ele>
        <time>2018-03-11T03:38:06.0000000Z</time>
      </trkpt>
      <trkpt lat="46.25962" lon="6.82957">
        <ele>1172</ele>
        <time>2018-03-11T03:40:05.0000000Z</time>
      </trkpt>
      <trkpt lat="46.26065" lon="6.83091">
        <ele>1139</ele>
        <time>2018-03-11T03:42:07.0000000Z</time>
      </trkpt>
      <trkpt lat="46.26109" lon="6.83125">
        <ele>1129</ele>
        <time>2018-03-11T03:44:06.0000000Z</time>
      </trkpt>
      <trkpt lat="46.26114" lon="6.83133">
        <ele>1130</ele>
        <time>2018-03-11T03:46:08.0000000Z</time>
      </trkpt>
      <trkpt lat="46.26113" lon="6.83155">
        <ele>1159</ele>
        <time>2018-03-11T03:48:09.0000000Z</time>
      </trkpt>
      <trkpt lat="46.2622" lon="6.83276">
        <ele>1138</ele>
        <time>2018-03-11T03:50:10.0000000Z</time>
      </trkpt>
      <trkpt lat="46.26336" lon="6.83309">
        <ele>1136</ele>
        <time>2018-03-11T03:52:07.0000000Z</time>
      </trkpt>
      <trkpt lat="46.26337" lon="6.83307">
        <ele>1138</ele>
        <time>2018-03-11T03:52:10.0000000Z</time>
      </trkpt>
      <trkpt lat="46.26459" lon="6.83318">
        <ele>1126</ele>
        <time>2018-03-11T03:54:09.0000000Z</time>
      </trkpt>
      <trkpt lat="46.26594" lon="6.83312">
        <ele>1131</ele>
        <time>2018-03-11T03:56:14.0000000Z</time>
      </trkpt>
      <trkpt lat="46.26726" lon="6.8329">
        <ele>1147</ele>
        <time>2018-03-11T03:58:15.0000000Z</time>
      </trkpt>
      <trkpt lat="46.2685" lon="6.83205">
        <ele>1123</ele>
        <time>2018-03-11T04:00:10.0000000Z</time>
      </trkpt>
      <trkpt lat="46.26979" lon="6.83115">
        <ele>1093</ele>
        <time>2018-03-11T04:02:07.0000000Z</time>
      </trkpt>
      <trkpt lat="46.27093" lon="6.83">
        <ele>1098</ele>
        <time>2018-03-11T04:04:09.0000000Z</time>
      </trkpt>
      <trkpt lat="46.27197" lon="6.82884">
        <ele>1107</ele>
        <time>2018-03-11T04:06:08.0000000Z</time>
      </trkpt>
      <trkpt lat="46.27295" lon="6.82745">
        <ele>1090</ele>
        <time>2018-03-11T04:08:08.0000000Z</time>
      </trkpt>
      <trkpt lat="46.27427" lon="6.82652">
        <ele>1056</ele>
        <time>2018-03-11T04:10:07.0000000Z</time>
      </trkpt>
      <trkpt lat="46.27524" lon="6.82519">
        <ele>1047</ele>
        <time>2018-03-11T04:12:08.0000000Z</time>
      </trkpt>
      <trkpt lat="46.27615" lon="6.82357">
        <ele>1039</ele>
        <time>2018-03-11T04:14:07.0000000Z</time>
      </trkpt>
      <trkpt lat="46.27698" lon="6.82198">
        <ele>1038</ele>
        <time>2018-03-11T04:16:08.0000000Z</time>
      </trkpt>
      <trkpt lat="46.27755" lon="6.82048">
        <ele>1042</ele>
        <time>2018-03-11T04:18:10.0000000Z</time>
      </trkpt>
      <trkpt lat="46.27815" lon="6.81902">
        <ele>1033</ele>
        <time>2018-03-11T04:20:08.0000000Z</time>
      </trkpt>
      <trkpt lat="46.27751" lon="6.8187">
        <ele>1026</ele>
        <time>2018-03-11T04:22:07.0000000Z</time>
      </trkpt>
      <trkpt lat="46.27739" lon="6.81772">
        <ele>1065</ele>
        <time>2018-03-11T04:24:10.0000000Z</time>
      </trkpt>
      <trkpt lat="46.27745" lon="6.81656">
        <ele>1089</ele>
        <time>2018-03-11T04:26:05.0000000Z</time>
      </trkpt>
      <trkpt lat="46.27796" lon="6.81549">
        <ele>1084</ele>
        <time>2018-03-11T04:28:08.0000000Z</time>
      </trkpt>
      <trkpt lat="46.27831" lon="6.81415">
        <ele>1090</ele>
        <time>2018-03-11T04:30:08.0000000Z</time>
      </trkpt>
      <trkpt lat="46.27774" lon="6.81484">
        <ele>1091</ele>
        <time>2018-03-11T04:32:08.0000000Z</time>
      </trkpt>
      <trkpt lat="46.27714" lon="6.81563">
        <ele>1109</ele>
        <time>2018-03-11T04:34:03.0000000Z</time>
      </trkpt>
      <trkpt lat="46.27713" lon="6.81564">
        <ele>1114</ele>
        <time>2018-03-11T04:34:06.0000000Z</time>
      </trkpt>
      <trkpt lat="46.27658" lon="6.81651">
        <ele>1126</ele>
        <time>2018-03-11T04:36:09.0000000Z</time>
      </trkpt>
      <trkpt lat="46.27657" lon="6.81652">
        <ele>1128</ele>
        <time>2018-03-11T04:36:12.0000000Z</time>
      </trkpt>
      <trkpt lat="46.27707" lon="6.81542">
        <ele>1161</ele>
        <time>2018-03-11T04:38:12.0000000Z</time>
      </trkpt>
      <trkpt lat="46.27741" lon="6.81413">
        <ele>1143</ele>
        <time>2018-03-11T04:40:10.0000000Z</time>
      </trkpt>
      <trkpt lat="46.27734" lon="6.81279">
        <ele>1147</ele>
        <time>2018-03-11T04:42:10.0000000Z</time>
      </trkpt>
      <trkpt lat="46.27699" lon="6.8115">
        <ele>1153</ele>
        <time>2018-03-11T04:44:17.0000000Z</time>
      </trkpt>
      <trkpt lat="46.277" lon="6.81151">
        <ele>1154</ele>
        <time>2018-03-11T04:44:20.0000000Z</time>
      </trkpt>
      <trkpt lat="46.27766" lon="6.81116">
        <ele>1187</ele>
        <time>2018-03-11T04:46:15.0000000Z</time>
      </trkpt>
      <trkpt lat="46.27804" lon="6.80988">
        <ele>1147</ele>
        <time>2018-03-11T04:48:04.0000000Z</time>
      </trkpt>
      <trkpt lat="46.27808" lon="6.80984">
        <ele>1156</ele>
        <time>2018-03-11T04:48:09.0000000Z</time>
      </trkpt>
      <trkpt lat="46.27875" lon="6.80942">
        <ele>1185</ele>
        <time>2018-03-11T04:50:08.0000000Z</time>
      </trkpt>
      <trkpt lat="46.2795" lon="6.80863">
        <ele>1165</ele>
        <time>2018-03-11T04:52:09.0000000Z</time>
      </trkpt>
      <trkpt lat="46.2799" lon="6.80772">
        <ele>1183</ele>
        <time>2018-03-11T04:54:04.0000000Z</time>
      </trkpt>
      <trkpt lat="46.27991" lon="6.80769">
        <ele>1182</ele>
        <time>2018-03-11T04:54:09.0000000Z</time>
      </trkpt>
      <trkpt lat="46.28017" lon="6.80687">
        <ele>1202</ele>
        <time>2018-03-11T04:56:08.0000000Z</time>
      </trkpt>
      <trkpt lat="46.27993" lon="6.80611">
        <ele>1233</ele>
        <time>2018-03-11T04:58:13.0000000Z</time>
      </trkpt>
      <trkpt lat="46.2798" lon="6.80658">
        <ele>1212</ele>
        <time>2018-03-11T05:00:12.0000000Z</time>
      </trkpt>
      <trkpt lat="46.2796" lon="6.80592">
        <ele>1215</ele>
        <time>2018-03-11T05:02:08.0000000Z</time>
      </trkpt>
      <trkpt lat="46.27932" lon="6.80501">
        <ele>1242</ele>
        <time>2018-03-11T05:04:03.0000000Z</time>
      </trkpt>
      <trkpt lat="46.27932" lon="6.80501">
        <ele>1242</ele>
        <time>2018-03-11T05:04:06.0000000Z</time>
      </trkpt>
      <trkpt lat="46.27931" lon="6.80504">
        <ele>1242</ele>
        <time>2018-03-11T05:04:15.0000000Z</time>
      </trkpt>
      <trkpt lat="46.27933" lon="6.80508">
        <ele>1244</ele>
        <time>2018-03-11T05:04:18.0000000Z</time>
      </trkpt>
      <trkpt lat="46.27942" lon="6.80441">
        <ele>1229</ele>
        <time>2018-03-11T05:06:01.0000000Z</time>
      </trkpt>
      <trkpt lat="46.27946" lon="6.80444">
        <ele>1228</ele>
        <time>2018-03-11T05:06:04.0000000Z</time>
      </trkpt>
      <trkpt lat="46.27945" lon="6.80443">
        <ele>1231</ele>
        <time>2018-03-11T05:06:07.0000000Z</time>
      </trkpt>
      <trkpt lat="46.28012" lon="6.80373">
        <ele>1241</ele>
        <time>2018-03-11T05:08:06.0000000Z</time>
      </trkpt>
      <trkpt lat="46.2807" lon="6.80257">
        <ele>1224</ele>
        <time>2018-03-11T05:10:08.0000000Z</time>
      </trkpt>
      <trkpt lat="46.28091" lon="6.8027">
        <ele>1213</ele>
        <time>2018-03-11T05:12:07.0000000Z</time>
      </trkpt>
      <trkpt lat="46.28093" lon="6.80273">
        <ele>1213</ele>
        <time>2018-03-11T05:12:10.0000000Z</time>
      </trkpt>
      <trkpt lat="46.28152" lon="6.8037">
        <ele>1190</ele>
        <time>2018-03-11T05:14:07.0000000Z</time>
      </trkpt>
      <trkpt lat="46.28202" lon="6.80466">
        <ele>1154</ele>
        <time>2018-03-11T05:16:02.0000000Z</time>
      </trkpt>
      <trkpt lat="46.28206" lon="6.80469">
        <ele>1153</ele>
        <time>2018-03-11T05:16:05.0000000Z</time>
      </trkpt>
      <trkpt lat="46.28241" lon="6.80572">
        <ele>1122</ele>
        <time>2018-03-11T05:18:09.0000000Z</time>
      </trkpt>
      <trkpt lat="46.28268" lon="6.80669">
        <ele>1111</ele>
        <time>2018-03-11T05:20:22.0000000Z</time>
      </trkpt>
      <trkpt lat="46.28357" lon="6.80705">
        <ele>1078</ele>
        <time>2018-03-11T05:22:09.0000000Z</time>
      </trkpt>
      <trkpt lat="46.28426" lon="6.80657">
        <ele>1056</ele>
        <time>2018-03-11T05:24:10.0000000Z</time>
      </trkpt>
      <trkpt lat="46.28502" lon="6.80544">
        <ele>1034</ele>
        <time>2018-03-11T05:26:05.0000000Z</time>
      </trkpt>
      <trkpt lat="46.28505" lon="6.8054">
        <ele>1033</ele>
        <time>2018-03-11T05:26:08.0000000Z</time>
      </trkpt>
      <trkpt lat="46.28596" lon="6.80582">
        <ele>1028</ele>
        <time>2018-03-11T05:28:10.0000000Z</time>
      </trkpt>
      <trkpt lat="46.2866" lon="6.80629">
        <ele>1034</ele>
        <time>2018-03-11T05:30:06.0000000Z</time>
      </trkpt>
      <trkpt lat="46.28749" lon="6.80678">
        <ele>999</ele>
        <time>2018-03-11T05:32:08.0000000Z</time>
      </trkpt>
      <trkpt lat="46.28832" lon="6.8063">
        <ele>1001</ele>
        <time>2018-03-11T05:34:09.0000000Z</time>
      </trkpt>
      <trkpt lat="46.28902" lon="6.80519">
        <ele>1003</ele>
        <time>2018-03-11T05:36:06.0000000Z</time>
      </trkpt>
      <trkpt lat="46.28899" lon="6.80354">
        <ele>999</ele>
        <time>2018-03-11T05:38:07.0000000Z</time>
      </trkpt>
      <trkpt lat="46.28963" lon="6.80225">
        <ele>1001</ele>
        <time>2018-03-11T05:40:08.0000000Z</time>
      </trkpt>
      <trkpt lat="46.28948" lon="6.80063">
        <ele>1014</ele>
        <time>2018-03-11T05:42:05.0000000Z</time>
      </trkpt>
      <trkpt lat="46.28979" lon="6.79897">
        <ele>1006</ele>
        <time>2018-03-11T05:44:06.0000000Z</time>
      </trkpt>
      <trkpt lat="46.29052" lon="6.79848">
        <ele>1012</ele>
        <time>2018-03-11T05:46:05.0000000Z</time>
      </trkpt>
      <trkpt lat="46.29116" lon="6.79938">
        <ele>993</ele>
        <time>2018-03-11T05:48:07.0000000Z</time>
      </trkpt>
      <trkpt lat="46.29145" lon="6.7995">
        <ele>1004</ele>
        <time>2018-03-11T05:50:06.0000000Z</time>
      </trkpt>
      <trkpt lat="46.29129" lon="6.79964">
        <ele>1051</ele>
        <time>2018-03-11T05:52:04.0000000Z</time>
      </trkpt>
      <trkpt lat="46.2914" lon="6.79952">
        <ele>1011</ele>
        <time>2018-03-11T05:54:04.0000000Z</time>
      </trkpt>
      <trkpt lat="46.29139" lon="6.79958">
        <ele>1021</ele>
        <time>2018-03-11T05:56:05.0000000Z</time>
      </trkpt>
      <trkpt lat="46.29141" lon="6.79954">
        <ele>1006</ele>
        <time>2018-03-11T05:58:03.0000000Z</time>
      </trkpt>
      <trkpt lat="46.2914" lon="6.79954">
        <ele>1017</ele>
        <time>2018-03-11T06:00:04.0000000Z</time>
      </trkpt>
      <trkpt lat="46.29149" lon="6.79945">
        <ele>974</ele>
        <time>2018-03-11T06:02:04.0000000Z</time>
      </trkpt>
      <trkpt lat="46.2915" lon="6.79945">
        <ele>991</ele>
        <time>2018-03-11T06:04:04.0000000Z</time>
      </trkpt>
      <trkpt lat="46.29136" lon="6.7995">
        <ele>1039</ele>
        <time>2018-03-11T06:06:05.0000000Z</time>
      </trkpt>
      <trkpt lat="46.2914" lon="6.79949">
        <ele>1026</ele>
        <time>2018-03-11T06:08:05.0000000Z</time>
      </trkpt>
      <trkpt lat="46.29144" lon="6.79953">
        <ele>1033</ele>
        <time>2018-03-11T06:10:05.0000000Z</time>
      </trkpt>
      <trkpt lat="46.29138" lon="6.79958">
        <ele>1010</ele>
        <time>2018-03-11T06:12:02.0000000Z</time>
      </trkpt>
      <trkpt lat="46.29124" lon="6.79946">
        <ele>994</ele>
        <time>2018-03-11T06:13:56.0000000Z</time>
      </trkpt>
      <trkpt lat="46.29121" lon="6.79949">
        <ele>1007</ele>
        <time>2018-03-11T06:14:06.0000000Z</time>
      </trkpt>
      <trkpt lat="46.29139" lon="6.79815">
        <ele>1008</ele>
        <time>2018-03-11T06:16:05.0000000Z</time>
      </trkpt>
      <trkpt lat="46.29193" lon="6.79673">
        <ele>990</ele>
        <time>2018-03-11T06:18:06.0000000Z</time>
      </trkpt>
      <trkpt lat="46.29254" lon="6.79543">
        <ele>1007</ele>
        <time>2018-03-11T06:20:05.0000000Z</time>
      </trkpt>
      <trkpt lat="46.29288" lon="6.79393">
        <ele>1002</ele>
        <time>2018-03-11T06:22:04.0000000Z</time>
      </trkpt>
      <trkpt lat="46.29322" lon="6.79223">
        <ele>998</ele>
        <time>2018-03-11T06:24:06.0000000Z</time>
      </trkpt>
      <trkpt lat="46.2935" lon="6.79083">
        <ele>1004</ele>
        <time>2018-03-11T06:26:06.0000000Z</time>
      </trkpt>
      <trkpt lat="46.29368" lon="6.78922">
        <ele>1004</ele>
        <time>2018-03-11T06:28:05.0000000Z</time>
      </trkpt>
      <trkpt lat="46.29372" lon="6.7875">
        <ele>1004</ele>
        <time>2018-03-11T06:30:05.0000000Z</time>
      </trkpt>
      <trkpt lat="46.29318" lon="6.78594">
        <ele>1003</ele>
        <time>2018-03-11T06:32:05.0000000Z</time>
      </trkpt>
      <trkpt lat="46.29258" lon="6.78443">
        <ele>995</ele>
        <time>2018-03-11T06:34:05.0000000Z</time>
      </trkpt>
      <trkpt lat="46.29267" lon="6.78333">
        <ele>991</ele>
        <time>2018-03-11T06:36:05.0000000Z</time>
      </trkpt>
      <trkpt lat="46.29325" lon="6.78226">
        <ele>989</ele>
        <time>2018-03-11T06:38:01.0000000Z</time>
      </trkpt>
      <trkpt lat="46.29325" lon="6.7822">
        <ele>989</ele>
        <time>2018-03-11T06:38:06.0000000Z</time>
      </trkpt>
      <trkpt lat="46.29349" lon="6.78055">
        <ele>987</ele>
        <time>2018-03-11T06:40:04.0000000Z</time>
      </trkpt>
      <trkpt lat="46.29381" lon="6.7789">
        <ele>990</ele>
        <time>2018-03-11T06:42:04.0000000Z</time>
      </trkpt>
      <trkpt lat="46.2934" lon="6.77756">
        <ele>975</ele>
        <time>2018-03-11T06:43:54.0000000Z</time>
      </trkpt>
      <trkpt lat="46.29333" lon="6.77745">
        <ele>974</ele>
        <time>2018-03-11T06:44:04.0000000Z</time>
      </trkpt>
      <trkpt lat="46.29352" lon="6.77581">
        <ele>982</ele>
        <time>2018-03-11T06:46:06.0000000Z</time>
      </trkpt>
      <trkpt lat="46.29346" lon="6.77454">
        <ele>992</ele>
        <time>2018-03-11T06:48:05.0000000Z</time>
      </trkpt>
      <trkpt lat="46.29277" lon="6.77453">
        <ele>1002</ele>
        <time>2018-03-11T06:50:06.0000000Z</time>
      </trkpt>
      <trkpt lat="46.29221" lon="6.77472">
        <ele>1018</ele>
        <time>2018-03-11T06:52:06.0000000Z</time>
      </trkpt>
      <trkpt lat="46.29163" lon="6.77462">
        <ele>1032</ele>
        <time>2018-03-11T06:54:08.0000000Z</time>
      </trkpt>
      <trkpt lat="46.29126" lon="6.77391">
        <ele>1038</ele>
        <time>2018-03-11T06:56:08.0000000Z</time>
      </trkpt>
      <trkpt lat="46.2911" lon="6.7731">
        <ele>1055</ele>
        <time>2018-03-11T06:58:06.0000000Z</time>
      </trkpt>
      <trkpt lat="46.29099" lon="6.77215">
        <ele>1067</ele>
        <time>2018-03-11T07:00:03.0000000Z</time>
      </trkpt>
      <trkpt lat="46.2908" lon="6.77098">
        <ele>1087</ele>
        <time>2018-03-11T07:02:04.0000000Z</time>
      </trkpt>
      <trkpt lat="46.29062" lon="6.76982">
        <ele>1082</ele>
        <time>2018-03-11T07:04:07.0000000Z</time>
      </trkpt>
      <trkpt lat="46.29033" lon="6.76882">
        <ele>1092</ele>
        <time>2018-03-11T07:06:09.0000000Z</time>
      </trkpt>
      <trkpt lat="46.28999" lon="6.76781">
        <ele>1101</ele>
        <time>2018-03-11T07:08:06.0000000Z</time>
      </trkpt>
      <trkpt lat="46.2898" lon="6.76714">
        <ele>1099</ele>
        <time>2018-03-11T07:10:06.0000000Z</time>
      </trkpt>
      <trkpt lat="46.2894" lon="6.76665">
        <ele>1105</ele>
        <time>2018-03-11T07:12:06.0000000Z</time>
      </trkpt>
      <trkpt lat="46.28899" lon="6.7669">
        <ele>1131</ele>
        <time>2018-03-11T07:14:08.0000000Z</time>
      </trkpt>
      <trkpt lat="46.28871" lon="6.76672">
        <ele>1128</ele>
        <time>2018-03-11T07:16:08.0000000Z</time>
      </trkpt>
      <trkpt lat="46.2883" lon="6.76646">
        <ele>1181</ele>
        <time>2018-03-11T07:18:13.0000000Z</time>
      </trkpt>
      <trkpt lat="46.28828" lon="6.76647">
        <ele>1183</ele>
        <time>2018-03-11T07:18:16.0000000Z</time>
      </trkpt>
      <trkpt lat="46.28806" lon="6.76642">
        <ele>1164</ele>
        <time>2018-03-11T07:20:05.0000000Z</time>
      </trkpt>
      <trkpt lat="46.28802" lon="6.76642">
        <ele>1163</ele>
        <time>2018-03-11T07:20:09.0000000Z</time>
      </trkpt>
      <trkpt lat="46.28763" lon="6.76614">
        <ele>1191</ele>
        <time>2018-03-11T07:22:08.0000000Z</time>
      </trkpt>
      <trkpt lat="46.28726" lon="6.7657">
        <ele>1178</ele>
        <time>2018-03-11T07:24:05.0000000Z</time>
      </trkpt>
      <trkpt lat="46.28674" lon="6.76523">
        <ele>1178</ele>
        <time>2018-03-11T07:26:04.0000000Z</time>
      </trkpt>
      <trkpt lat="46.28639" lon="6.76566">
        <ele>1191</ele>
        <time>2018-03-11T07:28:05.0000000Z</time>
      </trkpt>
      <trkpt lat="46.28596" lon="6.76542">
        <ele>1210</ele>
        <time>2018-03-11T07:30:03.0000000Z</time>
      </trkpt>
      <trkpt lat="46.28595" lon="6.76541">
        <ele>1213</ele>
        <time>2018-03-11T07:30:06.0000000Z</time>
      </trkpt>
      <trkpt lat="46.28547" lon="6.76529">
        <ele>1227</ele>
        <time>2018-03-11T07:32:07.0000000Z</time>
      </trkpt>
      <trkpt lat="46.28537" lon="6.76432">
        <ele>1220</ele>
        <time>2018-03-11T07:34:05.0000000Z</time>
      </trkpt>
      <trkpt lat="46.28489" lon="6.76388">
        <ele>1237</ele>
        <time>2018-03-11T07:36:04.0000000Z</time>
      </trkpt>
      <trkpt lat="46.28487" lon="6.76387">
        <ele>1242</ele>
        <time>2018-03-11T07:36:08.0000000Z</time>
      </trkpt>
      <trkpt lat="46.2844" lon="6.76351">
        <ele>1239</ele>
        <time>2018-03-11T07:38:01.0000000Z</time>
      </trkpt>
      <trkpt lat="46.28439" lon="6.76346">
        <ele>1241</ele>
        <time>2018-03-11T07:38:08.0000000Z</time>
      </trkpt>
      <trkpt lat="46.28388" lon="6.76285">
        <ele>1259</ele>
        <time>2018-03-11T07:40:10.0000000Z</time>
      </trkpt>
      <trkpt lat="46.28352" lon="6.76201">
        <ele>1269</ele>
        <time>2018-03-11T07:42:09.0000000Z</time>
      </trkpt>
      <trkpt lat="46.28333" lon="6.76151">
        <ele>1244</ele>
        <time>2018-03-11T07:44:06.0000000Z</time>
      </trkpt>
      <trkpt lat="46.28288" lon="6.76067">
        <ele>1252</ele>
        <time>2018-03-11T07:46:06.0000000Z</time>
      </trkpt>
      <trkpt lat="46.28264" lon="6.75993">
        <ele>1244</ele>
        <time>2018-03-11T07:47:57.0000000Z</time>
      </trkpt>
      <trkpt lat="46.28265" lon="6.75991">
        <ele>1244</ele>
        <time>2018-03-11T07:48:00.0000000Z</time>
      </trkpt>
      <trkpt lat="46.28265" lon="6.75989">
        <ele>1243</ele>
        <time>2018-03-11T07:48:03.0000000Z</time>
      </trkpt>
      <trkpt lat="46.28265" lon="6.75986">
        <ele>1241</ele>
        <time>2018-03-11T07:48:06.0000000Z</time>
      </trkpt>
      <trkpt lat="46.28285" lon="6.75879">
        <ele>1219</ele>
        <time>2018-03-11T07:50:04.0000000Z</time>
      </trkpt>
      <trkpt lat="46.28348" lon="6.75836">
        <ele>1215</ele>
        <time>2018-03-11T07:52:07.0000000Z</time>
      </trkpt>
      <trkpt lat="46.28443" lon="6.75823">
        <ele>1197</ele>
        <time>2018-03-11T07:54:05.0000000Z</time>
      </trkpt>
      <trkpt lat="46.28481" lon="6.7573">
        <ele>1181</ele>
        <time>2018-03-11T07:56:08.0000000Z</time>
      </trkpt>
      <trkpt lat="46.28566" lon="6.75639">
        <ele>1174</ele>
        <time>2018-03-11T07:58:05.0000000Z</time>
      </trkpt>
      <trkpt lat="46.28552" lon="6.7554">
        <ele>1138</ele>
        <time>2018-03-11T08:00:03.0000000Z</time>
      </trkpt>
      <trkpt lat="46.28555" lon="6.75537">
        <ele>1139</ele>
        <time>2018-03-11T08:00:06.0000000Z</time>
      </trkpt>
      <trkpt lat="46.286" lon="6.75499">
        <ele>1114</ele>
        <time>2018-03-11T08:02:06.0000000Z</time>
      </trkpt>
      <trkpt lat="46.28668" lon="6.75488">
        <ele>1108</ele>
        <time>2018-03-11T08:04:07.0000000Z</time>
      </trkpt>
      <trkpt lat="46.28667" lon="6.75488">
        <ele>1109</ele>
        <time>2018-03-11T08:04:10.0000000Z</time>
      </trkpt>
      <trkpt lat="46.28648" lon="6.75408">
        <ele>1086</ele>
        <time>2018-03-11T08:06:00.0000000Z</time>
      </trkpt>
      <trkpt lat="46.28645" lon="6.75406">
        <ele>1084</ele>
        <time>2018-03-11T08:06:06.0000000Z</time>
      </trkpt>
      <trkpt lat="46.28643" lon="6.75348">
        <ele>1091</ele>
        <time>2018-03-11T08:08:05.0000000Z</time>
      </trkpt>
      <trkpt lat="46.28656" lon="6.75266">
        <ele>1063</ele>
        <time>2018-03-11T08:10:09.0000000Z</time>
      </trkpt>
      <trkpt lat="46.28664" lon="6.75157">
        <ele>1050</ele>
        <time>2018-03-11T08:12:07.0000000Z</time>
      </trkpt>
      <trkpt lat="46.28664" lon="6.75153">
        <ele>1049</ele>
        <time>2018-03-11T08:12:11.0000000Z</time>
      </trkpt>
      <trkpt lat="46.28669" lon="6.75076">
        <ele>1025</ele>
        <time>2018-03-11T08:13:58.0000000Z</time>
      </trkpt>
      <trkpt lat="46.28664" lon="6.75073">
        <ele>1029</ele>
        <time>2018-03-11T08:14:04.0000000Z</time>
      </trkpt>
      <trkpt lat="46.28665" lon="6.75071">
        <ele>1030</ele>
        <time>2018-03-11T08:14:07.0000000Z</time>
      </trkpt>
      <trkpt lat="46.28617" lon="6.74947">
        <ele>1040</ele>
        <time>2018-03-11T08:15:58.0000000Z</time>
      </trkpt>
      <trkpt lat="46.28619" lon="6.74947">
        <ele>1037</ele>
        <time>2018-03-11T08:16:01.0000000Z</time>
      </trkpt>
      <trkpt lat="46.28622" lon="6.74948">
        <ele>1032</ele>
        <time>2018-03-11T08:16:06.0000000Z</time>
      </trkpt>
      <trkpt lat="46.28622" lon="6.74949">
        <ele>1032</ele>
        <time>2018-03-11T08:16:09.0000000Z</time>
      </trkpt>
      <trkpt lat="46.28654" lon="6.74953">
        <ele>1034</ele>
        <time>2018-03-11T08:18:05.0000000Z</time>
      </trkpt>
      <trkpt lat="46.28654" lon="6.74959">
        <ele>1021</ele>
        <time>2018-03-11T08:18:13.0000000Z</time>
      </trkpt>
      <trkpt lat="46.28737" lon="6.75002">
        <ele>982</ele>
        <time>2018-03-11T08:20:04.0000000Z</time>
      </trkpt>
      <trkpt lat="46.28843" lon="6.75061">
        <ele>982</ele>
        <time>2018-03-11T08:22:05.0000000Z</time>
      </trkpt>
      <trkpt lat="46.28944" lon="6.75185">
        <ele>955</ele>
        <time>2018-03-11T08:24:02.0000000Z</time>
      </trkpt>
      <trkpt lat="46.28945" lon="6.7519">
        <ele>953</ele>
        <time>2018-03-11T08:24:05.0000000Z</time>
      </trkpt>
      <trkpt lat="46.29004" lon="6.75321">
        <ele>974</ele>
        <time>2018-03-11T08:25:57.0000000Z</time>
      </trkpt>
      <trkpt lat="46.29002" lon="6.75327">
        <ele>975</ele>
        <time>2018-03-11T08:26:01.0000000Z</time>
      </trkpt>
      <trkpt lat="46.29003" lon="6.75334">
        <ele>974</ele>
        <time>2018-03-11T08:26:06.0000000Z</time>
      </trkpt>
      <trkpt lat="46.29045" lon="6.75505">
        <ele>954</ele>
        <time>2018-03-11T08:28:04.0000000Z</time>
      </trkpt>
      <trkpt lat="46.29136" lon="6.75636">
        <ele>959</ele>
        <time>2018-03-11T08:30:05.0000000Z</time>
      </trkpt>
      <trkpt lat="46.29235" lon="6.75751">
        <ele>966</ele>
        <time>2018-03-11T08:32:04.0000000Z</time>
      </trkpt>
      <trkpt lat="46.29211" lon="6.75873">
        <ele>1020</ele>
        <time>2018-03-11T08:34:01.0000000Z</time>
      </trkpt>
      <trkpt lat="46.29211" lon="6.7588">
        <ele>1014</ele>
        <time>2018-03-11T08:34:04.0000000Z</time>
      </trkpt>
      <trkpt lat="46.29304" lon="6.75934">
        <ele>968</ele>
        <time>2018-03-11T08:36:07.0000000Z</time>
      </trkpt>
      <trkpt lat="46.29342" lon="6.76106">
        <ele>977</ele>
        <time>2018-03-11T08:38:05.0000000Z</time>
      </trkpt>
      <trkpt lat="46.29414" lon="6.76233">
        <ele>979</ele>
        <time>2018-03-11T08:40:04.0000000Z</time>
      </trkpt>
      <trkpt lat="46.29397" lon="6.76451">
        <ele>978</ele>
        <time>2018-03-11T08:42:05.0000000Z</time>
      </trkpt>
      <trkpt lat="46.29392" lon="6.76642">
        <ele>981</ele>
        <time>2018-03-11T08:44:04.0000000Z</time>
      </trkpt>
      <trkpt lat="46.29323" lon="6.76813">
        <ele>989</ele>
        <time>2018-03-11T08:46:02.0000000Z</time>
      </trkpt>
      <trkpt lat="46.29322" lon="6.7682">
        <ele>990</ele>
        <time>2018-03-11T08:46:06.0000000Z</time>
      </trkpt>
      <trkpt lat="46.29301" lon="6.76996">
        <ele>977</ele>
        <time>2018-03-11T08:48:03.0000000Z</time>
      </trkpt>
      <trkpt lat="46.29302" lon="6.76997">
        <ele>975</ele>
        <time>2018-03-11T08:48:06.0000000Z</time>
      </trkpt>
      <trkpt lat="46.29284" lon="6.77125">
        <ele>993</ele>
        <time>2018-03-11T08:50:06.0000000Z</time>
      </trkpt>
      <trkpt lat="46.29373" lon="6.77272">
        <ele>991</ele>
        <time>2018-03-11T08:52:07.0000000Z</time>
      </trkpt>
      <trkpt lat="46.29398" lon="6.77436">
        <ele>992</ele>
        <time>2018-03-11T08:54:05.0000000Z</time>
      </trkpt>
      <trkpt lat="46.29465" lon="6.77597">
        <ele>988</ele>
        <time>2018-03-11T08:56:05.0000000Z</time>
      </trkpt>
      <trkpt lat="46.29473" lon="6.77758">
        <ele>994</ele>
        <time>2018-03-11T08:58:05.0000000Z</time>
      </trkpt>
      <trkpt lat="46.29496" lon="6.7788">
        <ele>992</ele>
        <time>2018-03-11T09:00:05.0000000Z</time>
      </trkpt>
      <trkpt lat="46.29488" lon="6.78052">
        <ele>999</ele>
        <time>2018-03-11T09:02:06.0000000Z</time>
      </trkpt>
      <trkpt lat="46.29472" lon="6.78238">
        <ele>1006</ele>
        <time>2018-03-11T09:04:04.0000000Z</time>
      </trkpt>
      <trkpt lat="46.29353" lon="6.78317">
        <ele>1010</ele>
        <time>2018-03-11T09:06:04.0000000Z</time>
      </trkpt>
      <trkpt lat="46.29235" lon="6.78363">
        <ele>996</ele>
        <time>2018-03-11T09:08:05.0000000Z</time>
      </trkpt>
      <trkpt lat="46.29305" lon="6.78512">
        <ele>1008</ele>
        <time>2018-03-11T09:10:05.0000000Z</time>
      </trkpt>
      <trkpt lat="46.29377" lon="6.78678">
        <ele>1011</ele>
        <time>2018-03-11T09:12:04.0000000Z</time>
      </trkpt>
      <trkpt lat="46.29437" lon="6.78791">
        <ele>1015</ele>
        <time>2018-03-11T09:13:58.0000000Z</time>
      </trkpt>
      <trkpt lat="46.29441" lon="6.78797">
        <ele>1019</ele>
        <time>2018-03-11T09:14:07.0000000Z</time>
      </trkpt>
      <trkpt lat="46.2945" lon="6.78805">
        <ele>1013</ele>
        <time>2018-03-11T09:16:02.0000000Z</time>
      </trkpt>
      <trkpt lat="46.2945" lon="6.78803">
        <ele>1012</ele>
        <time>2018-03-11T09:16:06.0000000Z</time>
      </trkpt>
      <trkpt lat="46.29454" lon="6.78805">
        <ele>1013</ele>
        <time>2018-03-11T09:18:05.0000000Z</time>
      </trkpt>
      <trkpt lat="46.29482" lon="6.78776">
        <ele>1018</ele>
        <time>2018-03-11T09:20:06.0000000Z</time>
      </trkpt>
    </trkseg>
  </trk>
</gpx>